SondeTracker

Meteorological Radiosondes Database

Operations
Radiosondes Table of last 48 hours (639)
Number Type Last Frame [UTC] φ λ Course Speed Altitude Climbing Launch Site Frequency Nearest City Distance from QTH Status
V2951456 RS41 2024-07-18 01:11:37 41.8479 -69.9372 43 ° 61 km/h 16328 m 5.0 m/s 405.301 MHz 0.00 km UNKNOWN
W0910413 RS41 2024-07-18 01:09:29 40.8059 -79.8864 77 ° 126 km/h 13902 m -8.9 m/s Pittsburgh [PA] (US) 401.001 MHz 0.00 km UNKNOWN
W0931205 RS41 2024-07-18 01:09:08 25.65 -81.3265 279 ° 87 km/h 22236 m -10.8 m/s Miami [FL] (US) 403.401 MHz 0.00 km UNKNOWN
V3920265 RS41 2024-07-18 01:08:37 -27.8436 154.285 19 ° 19 km/h 3206 m -8.6 m/s Brisbane (AU) 401.50 MHz 0.00 km UNKNOWN
D23072395 DFM 2024-07-18 01:08:31 27.6775 -83.1452 261 ° 24 km/h 19923 m -16.2 m/s Tampa [FL] (US) 403.010 MHz 0.00 km UNKNOWN
V0231480 RS41-SGP 2024-07-18 01:08:28 -19.7206 -42.9866 4 ° 13 km/h 2388 m -4.2 m/s Confins (BR) 403.998 MHz 0.00 km UNKNOWN
V3750668 RS41 2024-07-18 01:08:25 54.3935 10.2901 105 ° 24 km/h 470 m -8.3 m/s Schleswig (DE) 402.50 MHz 0.00 km UNKNOWN
V4240794 RS41 2024-07-18 01:07:57 32.4596 35.1392 73 ° 57 km/h 6589 m -6.4 m/s 405.300 MHz 0.00 km UNKNOWN
V3450909 RS41 2024-07-18 01:07:21 -32.4835 117.992 161 ° 13 km/h 22898 m -19.5 m/s Perth (AU) 401.502 MHz 0.00 km UNKNOWN
W1731804 RS41-SG 2024-07-18 01:05:42 43.0267 -82.5484 64 ° 133 km/h 14403 m -24.7 m/s Waterford [MI] (US) 403.978 MHz 0.00 km UNKNOWN
D23073658 DFM17 2024-07-18 01:05:25 47.2864 -67.368 72 ° 150 km/h 12948 m -10.9 m/s 403.611 MHz 0.00 km UNKNOWN
V3920041 RS41 2024-07-18 01:05:10 -34.0323 139.673 37 ° 72 km/h 6099 m -8.4 m/s Adelaide (AU) 401.500 MHz 0.00 km UNKNOWN
V3850971 RS41-SG 2024-07-18 01:04:56 -42.1409 148.431 75 ° 85 km/h 16304 m -20.6 m/s Hobart (AU) 401.50 MHz 0.00 km UNKNOWN
D23074321 DFM17 2024-07-18 01:04:39 47.9695 -93.5689 152 ° 61 km/h 14251 m -8.2 m/s International Falls [MN] (US) 403.211 MHz 0.00 km UNKNOWN
W1430214 RS41 2024-07-18 01:02:22 44.6952 11.9106 76 ° 9 km/h 68 m -9.5 m/s San Pietro Capofiume (IT) 404.60 MHz 0.00 km UNKNOWN
V1730082 RS41 2024-07-18 01:02:21 39.1399 -8.65413 130 ° 11 km/h 95 m -14.2 m/s Lisbon (PT) 403.021 MHz 0.00 km UNKNOWN
V1021151 RS41 2024-07-18 01:02:09 48.8253 9.63393 266 ° 28 km/h 574 m -10.3 m/s Stuttgart (DE) 404.50 MHz 0.00 km UNKNOWN
W0931227 RS41 2024-07-18 01:01:59 32.2185 -111.676 259 ° 87 km/h 25393 m -14.9 m/s Tucson [AZ] (US) 405.200 MHz 0.00 km UNKNOWN
T4010454 RS41 2024-07-18 01:01:13 24.2619 53.4155 267 ° 61 km/h 10718 m -5.5 m/s Abu Dhabi (AE) 403.000 MHz 0.00 km UNKNOWN
W1761226 RS41 2024-07-18 01:00:46 38.0342 -122.168 113 ° 15 km/h 669 m -9.3 m/s Oakland [CA] (US) 404.001 MHz 0.00 km UNKNOWN
V4110194 RS41-SGP 2024-07-18 01:00:27 39.5351 2.81921 262 ° 85 km/h 27184 m -14.7 m/s Palma (ES) 400.999 MHz 0.00 km UNKNOWN
V4440476 RS41-SGP 2024-07-18 01:00:25 24.9293 120.797 326 ° 20 km/h 10765 m -4.7 m/s New Taipei (TW) 400.30 MHz 0.00 km UNKNOWN
V3430078 RS41 2024-07-18 00:59:53 -33.8137 -70.6923 60 ° 6 km/h 467 m -14.9 m/s Santo Domingo (CL) 403.000 MHz 0.00 km UNKNOWN
W0324732 RS41 2024-07-18 00:59:14 49.3325 20.5277 85 ° 13 km/h 2884 m -15.4 m/s Poprad (SK) 400.602 MHz 0.00 km UNKNOWN
V3750723 RS41 2024-07-18 00:58:48 53.6845 8.13242 38 ° 9 km/h 65 m -4.7 m/s Norderney (DE) 404.10 MHz 0.00 km UNKNOWN
V3631012 RS41 2024-07-18 00:58:41 -25.3286 -48.2568 89 ° 170 km/h 13082 m -11.0 m/s 403.000 MHz 0.00 km UNKNOWN
V0521502 RS41 2024-07-18 00:57:36 56.6529 4.10674 73 ° 72 km/h 11962 m -20.0 m/s Ekofisk (NO) 403.000 MHz 0.00 km UNKNOWN
ME372290B M10 2024-07-18 00:53:06 41.2649 2.87556 26 ° 20 km/h 1161 m -11.8 m/s Barcelona (ES) 403.999 MHz 0.00 km UNKNOWN
D22015269 DFM09 2024-07-18 00:51:58 12.2244 -69.4349 271 ° 56 km/h 20561 m -51.8 m/s Willemstad (CW) 405.510 MHz 0.00 km UNKNOWN
MTS9BA419 MTS01 2024-07-18 00:39:59 38.5432 27.3072 279 ° 46 km/h 21173 m -9999.0 m/s Izmir (TR) 401.497 MHz 0.00 km UNKNOWN
V0830982 RS41 2024-07-18 00:38:57 -32.8158 152.532 73 ° 39 km/h 4382 m -9.5 m/s Williamtown (AU) 402.50 MHz 0.00 km UNKNOWN
S4320699 RS41 2024-07-18 00:38:21 54.7092 31.9147 92 ° 104 km/h 943 m -2.2 m/s Kaunas (LT) 401.000 MHz Smolensk (RU) 0.00 km UNKNOWN
MTS9BAA5D MTS01 2024-07-18 00:36:28 40.8409 29.3422 84 ° 7 km/h 20224 m -9999.0 m/s Istanbul (TR) 401.001 MHz 0.00 km UNKNOWN
MEB804942 M20 2024-07-18 00:34:16 17.323 138.958 354 ° 170 km/h 23530 m 24.5 m/s 405.800 MHz 0.00 km UNKNOWN
W1520715 RS41 2024-07-18 00:33:51 34.9587 -120.483 351 ° 63 km/h 5171 m -9.3 m/s Santa Maria [CA] (US) 402.001 MHz 0.00 km UNKNOWN
IMET89441 iMET 2024-07-18 00:32:06 50.9114 5.53751 83 ° 59 km/h 9544 m -9.0 m/s Beauvechain (BE) 403.000 MHz 0.00 km UNKNOWN
V0931627 RS41 2024-07-18 00:24:59 -36.6295 176.95 87 ° 81 km/h 17629 m -26.1 m/s Whenuapai (NZ) 403.001 MHz 0.00 km UNKNOWN
D74072581 DFM 2024-07-18 00:18:58 39.7805 -119.475 343 ° 6 km/h 17718 m 4.6 m/s Reno [NV] (US) 404.811 MHz Spanish Springs [NV] (US) 0.00 km UNKNOWN
V0320639 RS41-SGP 2024-07-18 00:09:55 -27.4029 -48.0244 81 ° 128 km/h 12171 m 8.9 m/s Florianopolis (BR) 403.000 MHz Florianópolis (BR) 0.00 km LOST
V1210828 RS41-SG 2024-07-18 00:09:31 80.0634 -84.5617 83 ° 9 km/h 15706 m 5.9 m/s Eureka [NU] (CA) 405.000 MHz 0.00 km UNKNOWN
V1350255 RS41 2024-07-17 23:56:02 44.7224 -63.0097 69 ° 72 km/h 12487 m 3.7 m/s Shearwater [NS] (CA) 402.501 MHz 0.00 km UNKNOWN
V0540844 RS41-SG 2024-07-17 23:50:39 -40.9187 175.907 278 ° 7 km/h 557 m -14.7 m/s Paraparaumu (NZ) 400.501 MHz Masterton (NZ) 0.00 km UNKNOWN
W0920075 RS41 2024-07-17 23:34:57 35.0192 -97.4026 103 ° 33 km/h 10199 m 5.3 m/s Norman [OK] (US) 404.201 MHz Norman [OK] (US) 0.00 km UNKNOWN
V4841163 RS41-SG 2024-07-17 22:33:37 32.953 -114.141 167 ° 13 km/h 15044 m -21.4 m/s Yuma [AZ] (US) 403.500 MHz Fortuna Foothills [AZ] (US) 0.00 km UNKNOWN
V2450278 RS41 2024-07-17 22:04:52 -33.8358 152.209 44 ° 43 km/h 1333 m -6.6 m/s Sydney (AU) 401.50 MHz The Entrance (AU) 0.00 km LOST
V4841162 RS41 2024-07-17 20:36:33 32.9629 -114.196 287 ° 15 km/h 17888 m -31.8 m/s Yuma [AZ] (US) 403.400 MHz Fortuna Foothills [AZ] (US) 0.00 km UNKNOWN
D24004315 DFM09 2024-07-17 20:04:53 41.494 -72.2835 48 ° 41 km/h 2507 m -5.6 m/s Upton [NY] (US) 405.410 MHz Norwich [CT] (US) 0.00 km UNKNOWN
V2150414 RS41 2024-07-17 19:48:30 -39.6898 145.928 19 ° 37 km/h 2605 m -8.0 m/s 402.500 MHz 0.00 km LOST
V3220939 RS41 2024-07-17 19:36:04 33.1203 -114.52 294 ° 24 km/h 17987 m -36.0 m/s Yuma [AZ] (US) 400.599 MHz Fortuna Foothills [AZ] (US) 0.00 km UNKNOWN
V3742147 RS41 2024-07-17 19:29:24 52.5998 14.7934 122 ° 15 km/h 85 m -5.7 m/s Lindenberg (DE) 405.100 MHz Kostrzyn (PL) 0.00 km UNKNOWN
ME2B2287E M10 2024-07-17 19:19:20 43.4879 21.7828 175 ° 6 km/h 2079 m -14.0 m/s Niš (RS) 402.400 MHz Aleksinac (RS) 0.00 km UNKNOWN
V1050330 RS41 2024-07-17 19:17:37 49.5761 8.02877 247 ° 7 km/h 636 m -9.8 m/s Idar-Oberstein (DE) 402.700 MHz Frankenthal (DE) 0.00 km UNKNOWN
W1020803 RS41 2024-07-17 19:15:36 39.4194 -76.6691 58 ° 35 km/h 1430 m -5.2 m/s Washington [VA] (US) 403.000 MHz Mays Chapel [MD] (US) 0.00 km UNKNOWN
ME2B22C5F M10 2024-07-17 19:10:48 44.9389 20.4082 143 ° 20 km/h 554 m -13.8 m/s Belgrade (RS) 402.799 MHz Zemun (RS) 0.00 km UNKNOWN
ME2B22802 M10 2024-07-17 19:10:11 44.4356 22.4374 245 ° 17 km/h 1335 m -14.7 m/s 404.200 MHz Kladovo (RS) 0.00 km UNKNOWN
ME2B22382 M10 2024-07-17 19:08:44 43.4258 19.9334 142 ° 20 km/h 5551 m -16.5 m/s Sjenica (RS) 403.200 MHz Nova Varoš (RS) 0.00 km UNKNOWN
V4710500 RS41-SG 2024-07-17 19:07:59 33.3562 126.744 42 ° 57 km/h 2097 m -5.2 m/s 403.300 MHz 0.00 km UNKNOWN
V3050936 RS41-SGP 2024-07-17 18:46:10 35.2882 -117.787 15 ° 30 km/h 3563 m -2.5 m/s Rosamond [CA] (US) 400.251 MHz California City [CA] (US) 0.00 km UNKNOWN
W1610487 RS41 2024-07-17 17:23:41 28.5243 -81.3263 342 ° 9 km/h 311 m -5.2 m/s Cape Canaveral [FL] (US) 401.001 MHz Conway [FL] (US) 0.00 km UNKNOWN
V4840789 RS41-SG 2024-07-17 16:39:30 32.977 -114.455 222 ° 30 km/h 17544 m -26.0 m/s Yuma [AZ] (US) 401.200 MHz Fortuna Foothills [AZ] (US) 0.00 km UNKNOWN
T3560499 RS41 2024-07-17 15:46:01 -33.5589 -69.7139 102 ° 117 km/h 6572 m -6.6 m/s Santiago (CL) 403.000 MHz Tupungato (AR) 0.00 km UNKNOWN
W0130443 RS41 2024-07-17 14:59:14 38.7205 -95.1013 253 ° 37 km/h 1018 m -1.8 m/s Topeka [KS] (US) 404.001 MHz Gardner [KS] (US) 0.00 km UNKNOWN
D23072956 DFM17 2024-07-17 14:48:24 43.7552 -91.5277 158 ° 37 km/h 1284 m -2.9 m/s Chanhassen [MN] (US) 403.610 MHz La Crosse [WI] (US) 0.00 km UNKNOWN
V3934141 RS41-SGP 2024-07-17 14:45:43 -23.4781 -44.9696 72 ° 7 km/h 448 m -3.7 m/s São Paulo (BR) 405.300 MHz Trindade (BR) 0.00 km LOST
V4850915 RS41-SG 2024-07-17 14:35:48 32.9599 -114.39 253 ° 46 km/h 19644 m -33.8 m/s Yuma [AZ] (US) 401.200 MHz Fortuna Foothills [AZ] (US) 0.00 km UNKNOWN
V3750657 RS41 2024-07-17 14:33:38 54.9706 11.0158 83 ° 48 km/h 225 m -2.2 m/s Schleswig (DE) 402.50 MHz Nakskov (DK) 0.00 km LOST
MEAF00367 M20 2024-07-17 14:33:30 48.8188 16.5975 169 ° 13 km/h 273 m -10.1 m/s Vienna (AT) 403.500 MHz Mikulov (CZ) 0.00 km UNKNOWN
V4150670 RS41 2024-07-17 14:26:41 43.8584 -7.46906 27 ° 35 km/h 3083 m -2.6 m/s A Coruña (ES) 405.000 MHz Burela de Cabo (ES) 0.00 km LOST
D23072675 DFM17 2024-07-17 14:22:24 40.7971 -95.1604 204 ° 19 km/h 1461 m -3.1 m/s Valley [NE] (US) 403.211 MHz Maryville [MO] (US) 0.00 km UNKNOWN
V3140421 RS41 2024-07-17 14:22:23 52.982 -8.74318 17 ° 50 km/h 1195 m -3.0 m/s Cahersiveen (IE) 405.300 MHz Ennis (IE) 0.00 km UNKNOWN
U3774076 RS41 2024-07-17 14:22:16 50.7418 7.84412 125 ° 7 km/h 507 m -2.3 m/s Jülich (DE) 401.001 MHz Wilnsdorf (DE) 0.00 km UNKNOWN
D23073106 DFM17 2024-07-17 14:22:03 47.9444 -117.752 257 ° 13 km/h 1991 m -7.3 m/s Spokane [WA] (US) 403.212 MHz Spokane [WA] (US) 0.00 km UNKNOWN
W1840943 RS41 2024-07-17 14:21:10 45.4517 -124.125 305 ° 33 km/h 3837 m -14.4 m/s Salem [OR] (US) 401.400 MHz Lincoln City [OR] (US) 0.00 km LOST
V3011537 RS41-SGP 2024-07-17 14:16:09 23.8939 53.1089 237 ° 50 km/h 7750 m -20.7 m/s Abu Dhabi (AE) 405.300 MHz 0.00 km UNKNOWN
V2411013 RS41-SGP 2024-07-17 14:15:51 48.9198 13.0518 145 ° 9 km/h 1150 m -2.0 m/s München (DE) 402.30 MHz Deggendorf (DE) 0.00 km UNKNOWN
D24000615 DFM17 2024-07-17 14:15:37 41.2401 -115.494 51 ° 28 km/h 4826 m -2.7 m/s Elko [NV] (US) 403.212 MHz Elko [NV] (US) 0.00 km UNKNOWN
V2850381 RS41 2024-07-17 14:12:52 46.3956 13.5642 354 ° 11 km/h 2054 m -1.8 m/s Udine-Rivolto (IT) 404.00 MHz Bovec (SI) 0.00 km UNKNOWN
W1020800 RS41 2024-07-17 14:12:32 39.3966 -77.3696 99 ° 30 km/h 1688 m -3.5 m/s Washington [VA] (US) 403.000 MHz Ballenger Creek [MD] (US) 0.00 km UNKNOWN
MEA000653 M20 2024-07-17 14:10:13 44.6461 -0.34274 330 ° 17 km/h 1216 m -2.1 m/s Biscarrosse (FR) 405.604 MHz Langon (FR) 0.00 km UNKNOWN
V4550085 RS41 2024-07-17 14:09:07 61.6147 23.4871 301 ° 31 km/h 272 m -8.8 m/s Jokioinen (FI) 403.000 MHz Ylöjärvi (FI) 0.00 km UNKNOWN
V3742045 RS41 2024-07-17 14:07:33 50.7544 5.2142 79 ° 19 km/h 526 m -6.4 m/s Uccle (BE) 403.502 MHz Waremme (BE) 0.00 km FOUND
MEA801290 M20 2024-07-17 14:06:44 48.8861 -3.82752 38 ° 44 km/h 5197 m -4.4 m/s Brest (FR) 403.000 MHz Saint-Pol-de-Léon (FR) 0.00 km LOST
W1917470 RS41 2024-07-17 14:04:43 51.058 11.2168 102 ° 19 km/h 312 m -3.1 m/s Meiningen (DE) 402.30 MHz Weimar (DE) 0.00 km FOUND
D23072441 DFM 2024-07-17 14:02:00 33.4519 -85.2471 152 ° 28 km/h 13541 m -4.9 m/s Peachtree City [GA] (US) MHz Carrollton [GA] (US) 0.00 km UNKNOWN
D23077731 DFM09 2024-07-17 14:00:40 40.7887 -111.809 248 ° 7 km/h 1930 m -1.9 m/s Salt Lake City [UT] (US) 405.010 MHz Salt Lake City [UT] (US) 0.00 km UNKNOWN
V2910159 RS41 2024-07-17 13:59:17 45.7348 9.37506 293 ° 20 km/h 442 m -2.1 m/s Cameri (IT) 404.90 MHz Missaglia (IT) 0.00 km FOUND
W2221038 RS41 2024-07-17 13:59:06 34.9587 -79.4278 86 ° 22 km/h 417 m -11.7 m/s 403.00 MHz Laurinburg [NC] (US) 0.00 km UNKNOWN
V3814346 RS41 2024-07-17 13:58:59 43.7609 -3.25158 48 ° 28 km/h 4288 m -3.3 m/s Santander (ES) 402.500 MHz Santoña (ES) 0.00 km LOST
V0721686 RS41 2024-07-17 13:58:27 -33.8784 -57.6148 45 ° 43 km/h 1932 m -16.1 m/s Ezeiza (AR) 403.500 MHz Colonia del Sacramento (UY) 0.00 km UNKNOWN
D23073142 DFM 2024-07-17 13:57:52 27.8039 -83.1837 3 ° 11 km/h 2522 m -3.0 m/s Tampa [FL] (US) 403.010 MHz Seminole [FL] (US) 0.00 km LOST
D23073864 DFM17 2024-07-17 13:57:10 37.3805 -80.4107 82 ° 6 km/h 993 m -4.3 m/s Blacksburg [VA] (US) 404.010 MHz Blacksburg [VA] (US) 0.00 km UNKNOWN
T4040194 RS41 2024-07-17 13:56:27 -45.9579 -64.4231 126 ° 81 km/h 5076 m -13.5 m/s Comodoro Rivadavia (AR) 404.300 MHz 0.00 km LOST
V5010215 RS41 2024-07-17 13:55:31 50.6561 -4.75557 2 ° 20 km/h 653 m -10.7 m/s Camborne (GB) 405.70 MHz Wadebridge (GB) 0.00 km UNKNOWN
D24000005 DFM09 2024-07-17 13:55:04 44.5319 -97.7508 155 ° 39 km/h 2352 m -5.5 m/s Aberdeen [SD] (US) 405.211 MHz Huron [SD] (US) 0.00 km UNKNOWN
V2150388 RS41 2024-07-17 13:53:17 -40.2096 145.594 39 ° 44 km/h 2954 m -13.3 m/s 402.501 MHz Smithton (AU) 0.00 km LOST
W1140046 RS41-SG 2024-07-17 13:50:54 10.6449 106.289 70 ° 57 km/h 432 m -9.1 m/s Ho Chi Minh (VN) 403.000 MHz 0.00 km UNKNOWN
V3750638 RS41 2024-07-17 13:49:58 53.8584 8.33531 107 ° 37 km/h 80 m -2.1 m/s Norderney (DE) 404.10 MHz Cuxhaven (DE) 0.00 km LOST
D23072513 DFM17 2024-07-17 13:48:43 31.7137 -107.679 256 ° 22 km/h 2299 m -4.3 m/s Santa Teresa [NM] (US) 401.410 MHz Deming [NM] (US) 0.00 km UNKNOWN
W1927034 RS41 2024-07-17 13:48:28 51.4894 8.06808 113 ° 17 km/h 276 m -3.6 m/s Essen (DE) 405.30 MHz Arnsberg (DE) 0.00 km UNKNOWN
D23078085 DFM17 2024-07-17 13:47:40 35.253 -112.361 345 ° 19 km/h 6528 m -7.9 m/s Flagstaff [AZ] (US) 404.810 MHz Chino Valley [AZ] (US) 0.00 km UNKNOWN
ME35222A8 M10 2024-07-17 13:45:01 38.2717 -0.680081 264 ° 9 km/h 1426 m -6.4 m/s Murcia (ES) 404.395 MHz Elche (ES) 0.00 km UNKNOWN
V4710519 RS41 2024-07-17 13:44:19 33.354 126.553 31 ° 54 km/h 2528 m -7.7 m/s 403.301 MHz 0.00 km UNKNOWN
D24005333 DFM17 2024-07-17 13:42:24 40.076 -88.3617 153 ° 13 km/h 204 m -3.6 m/s Lincoln [IL] (US) 405.010 MHz Champaign [IL] (US) 0.00 km UNKNOWN
MTS9BA700 MTS01 2024-07-17 13:42:13 40.7297 28.9479 240 ° 52 km/h 1987 m -9999.0 m/s Istanbul (TR) 400.998 MHz Çınarcık (TR) 0.00 km LOST
V1021319 RS41 2024-07-17 13:41:03 49.0367 10.2541 109 ° 13 km/h 597 m -3.4 m/s Stuttgart (DE) 404.50 MHz Ellwangen (DE) 0.00 km NEED ATTENTION
MEB003284 M20 2024-07-17 13:40:16 37.965 23.7429 202 ° 31 km/h 192 m -7.3 m/s Athens (GR) 405.200 MHz Výronas (GR) 0.00 km UNKNOWN
D24000084 DFM09 2024-07-17 13:36:35 41.4284 -89.4485 175 ° 22 km/h 359 m -4.3 m/s Davenport [IA] (US) 403.411 MHz Peru [IL] (US) 0.00 km UNKNOWN
R0618249 RS41 2024-07-17 13:36:00 -41.8848 -70.5837 87 ° 70 km/h 21160 m -20.5 m/s 402.983 MHz Ñorquinco (AR) 0.00 km UNKNOWN
N0730054 RS41 2024-07-17 13:35:33 35.2181 -118.247 132 ° 37 km/h 1980 m -10.2 m/s Rosamond [CA] (US) 405.301 MHz Tehachapi [CA] (US) 0.00 km UNKNOWN
D23068383 DFM 2024-07-17 13:35:31 32.936 -80.6417 71 ° 33 km/h 2882 m -7.2 m/s Charleston [SC] (US) 403.610 MHz Summerville [SC] (US) 0.00 km UNKNOWN
D24000509 DFM09 2024-07-17 13:34:35 30.5148 -82.4171 55 ° 13 km/h 3546 m -9.8 m/s Jacksonville [FL] (US) 403.211 MHz Macclenny [FL] (US) 0.00 km UNKNOWN
D23075758 DFM09 2024-07-17 13:34:18 46.0203 -100.607 159 ° 43 km/h 3533 m -7.9 m/s Bismarck [ND] (US) 403.811 MHz Bismarck [ND] (US) 0.00 km UNKNOWN
MEB101883 M20 2024-07-17 13:33:39 50.6274 21.1654 146 ° 20 km/h 671 m -7.3 m/s Tarnów (PL) 405.800 MHz Staszów (PL) 0.00 km FOUND
V2850866 RS41 2024-07-17 13:33:02 40.384 18.0904 175 ° 35 km/h 148 m -11.9 m/s Galatina (IT) 403.50 MHz Trepuzzi (IT) 0.00 km FOUND
D23076212 DFM 2024-07-17 13:32:55 36.2608 -80.1283 71 ° 9 km/h 388 m -9.4 m/s Greensboro [NC] (US) 403.411 MHz Kernersville [NC] (US) 0.00 km UNKNOWN
V4440211 RS41 2024-07-17 13:32:03 67.4869 26.9733 103 ° 67 km/h 8709 m -13.7 m/s Sodankyla (FI) 403.999 MHz Sodankylä (FI) 0.00 km UNKNOWN
V2911226 RS41 2024-07-17 13:31:58 37.7714 12.481 161 ° 35 km/h 105 m -12.4 m/s Trapani-Birgi (IT) 404.500 MHz Marsala (IT) 0.00 km UNKNOWN
U0210296 RS41 2024-07-17 13:31:07 40.8257 -3.08416 42 ° 15 km/h 1351 m -4.5 m/s Madrid (ES) 403.000 MHz Marchamalo (ES) 0.00 km UNKNOWN
W1760720 RS41 2024-07-17 13:30:51 61.2837 -150.238 344 ° 17 km/h 19109 m -41.9 m/s Anchorage [AK] (US) 401.001 MHz Knik-Fairview [AK] (US) 0.00 km UNKNOWN
ME9B00703 M20 2024-07-17 13:30:14 45.0424 -0.26711 73 ° 33 km/h 4697 m -7.8 m/s Bordeaux (FR) 402.802 MHz Saint-Denis-de-Pile (FR) 0.00 km UNKNOWN
V3250069 RS41-SGP 2024-07-17 13:30:02 -22.7888 -41.9782 82 ° 17 km/h 626 m -13.0 m/s Galeão (BR) 405.301 MHz Cabo Frio (BR) 0.00 km UNKNOWN
V1730387 RS41-SGP 2024-07-17 13:29:21 39.0222 -8.44732 77 ° 11 km/h 209 m -5.4 m/s Lisbon (PT) 403.021 MHz Coruche (PT) 0.00 km FOUND
D23077743 DFM17 2024-07-17 13:28:57 40.8075 -100.419 100 ° 89 km/h 10569 m -4.6 m/s North Platte [NE] (US) 403.011 MHz North Platte [NE] (US) 0.00 km UNKNOWN
V2840124 RS41 2024-07-17 13:27:50 41.7338 12.3281 86 ° 24 km/h 108 m -9.0 m/s Pratica di Mare (IT) 405.800 MHz Fiumicino (IT) 0.00 km FOUND
D23073731 DFM17 2024-07-17 13:27:39 30.2307 -93.6191 33 ° 26 km/h 1895 m -9.5 m/s Lake Charles [LA] (US) 404.410 MHz Orange [TX] (US) 0.00 km UNKNOWN
V4111182 RS41-SGP 2024-07-17 13:26:53 37.5698 -6.66429 74 ° 7 km/h 452 m -4.3 m/s Huelva (ES) 402.501 MHz Valverde del Camino (ES) 0.00 km UNKNOWN
V3020294 RS41 2024-07-17 13:26:46 54.0997 11.65 75 ° 39 km/h 121 m -2.3 m/s Sasel (DE) 402.70 MHz Wismar (DE) 0.00 km FOUND
V3121059 RS41 2024-07-17 13:26:27 33.4197 -112.121 71 ° 37 km/h 1328 m -16.1 m/s Phoenix [AZ] (US) 401.700 MHz Phoenix [AZ] (US) 0.00 km UNKNOWN
ME34224BF M10 2024-07-17 13:26:26 48.7921 2.4949 179 ° 7 km/h 199 m -9.5 m/s Trappes (FR) 401.002 MHz Saint-Maur-des-Fossés (FR) 0.00 km UNKNOWN
ME35222F1 M10 2024-07-17 13:25:59 38.2496 -0.73735 329 ° 6 km/h 1644 m -13.3 m/s Murcia (ES) 403.400 MHz Elche (ES) 0.00 km UNKNOWN
D23072987 DFM17 2024-07-17 13:25:44 34.8612 -77.4812 18 ° 20 km/h 6531 m -11.8 m/s Newport [NC] (US) 400.811 MHz Jacksonville [NC] (US) 0.00 km UNKNOWN
V3631296 RS41 2024-07-17 13:23:09 52.9478 14.9293 108 ° 31 km/h 140 m -5.8 m/s Lindenberg (DE) 405.10 MHz Myślibórz (PL) 0.00 km FOUND
V4430428 RS41 2024-07-17 13:22:29 42.8142 23.2943 246 ° 11 km/h 615 m -12.0 m/s Sofia (BG) 405.301 MHz Dobroslavtsi (BG) 0.00 km FOUND
T5040779 RS41 2024-07-17 13:22:05 50.078 17.7742 133 ° 24 km/h 999 m -12.1 m/s Prostějov (CZ) 402.100 MHz Krnov (CZ) 0.00 km UNKNOWN
V2850231 RS41 2024-07-17 13:21:34 39.2755 9.16718 335 ° 13 km/h 120 m -6.3 m/s Decimomannu (IT) 403.500 MHz Selargius (IT) 0.00 km FOUND
ME3422705 M10 2024-07-17 13:20:48 41.9922 8.88428 102 ° 48 km/h 5799 m -6.7 m/s Ajaccio (FR) 400.973 MHz Ajaccio (FR) 0.00 km UNKNOWN
D23077477 DFM09 2024-07-17 13:20:00 47.9686 -93.636 149 ° 67 km/h 12853 m -8.0 m/s International Falls [MN] (US) 403.211 MHz Grand Rapids [MN] (US) 0.00 km UNKNOWN
W0930314 RS41 2024-07-17 13:19:49 32.6319 -98.2552 179 ° 50 km/h 10070 m -12.8 m/s Fort Worth [TX] (US) 404.800 MHz Mineral Wells [TX] (US) 0.00 km UNKNOWN
ME3822143 M10 2024-07-17 13:19:28 41.5403 2.85421 90 ° 41 km/h 2649 m -10.3 m/s Barcelona (ES) 403.999 MHz Malgrat de Mar (ES) 0.00 km LOST
D23073837 DFM 2024-07-17 13:19:15 36.3473 -86.8057 260 ° 24 km/h 20499 m -14.3 m/s Nashville [TN] (US) MHz Goodlettsville [TN] (US) 0.00 km UNKNOWN
V4510907 RS41 2024-07-17 13:19:10 53.0483 21.3655 7 ° 13 km/h 203 m -15.7 m/s Legionowo (PL) 404.50 MHz Ostrołęka (PL) 0.00 km UNKNOWN
V3720714 RS41 2024-07-17 13:18:54 -19.7451 -42.9398 78 ° 33 km/h 3647 m -12.0 m/s Confins (BR) 403.998 MHz Itabira (BR) 0.00 km UNKNOWN
D23063841 DFM17 2024-07-17 13:17:49 38.1029 -75.7868 4 ° 28 km/h 16009 m -14.6 m/s Wallops Island [VA] (US) 400.610 MHz Princess Anne [MD] (US) 0.00 km UNKNOWN
U3654255 RS41 2024-07-17 13:17:14 44.3185 15.5215 160 ° 13 km/h 1958 m -15.6 m/s Zadar (HR) 401.000 MHz Starigrad (HR) 0.00 km UNKNOWN
MTS9BAA0A MTS01 2024-07-17 13:16:55 38.4723 26.8087 267 ° 69 km/h 28039 m -9999.0 m/s Izmir (TR) 401.499 MHz Mordoğan (TR) 0.00 km LOST
ME2B228A5 M10 2024-07-17 13:16:53 43.5867 21.7945 295 ° 7 km/h 2457 m -13.3 m/s Niš (RS) 402.400 MHz Sokobanja (RS) 0.00 km UNKNOWN
V2951385 RS41 2024-07-17 13:16:43 54.7544 14.2566 73 ° 54 km/h 2858 m -4.7 m/s Greifswald (DE) 402.30 MHz Rønne (DK) 0.00 km LOST
U3231074 RS41 2024-07-17 13:15:14 53.1294 10.4208 87 ° 37 km/h 666 m -7.0 m/s Bergen (DE) 405.70 MHz Lüneburg (DE) 0.00 km FOUND
S0910161 RS41 2024-07-17 13:15:00 58.3924 18.8476 27 ° 96 km/h 6027 m -20.9 m/s Visby (SE) 405.300 MHz Nynäshamn (SE) 0.00 km LOST
V4310120 RS41 2024-07-17 13:14:59 50.6198 15.0346 72 ° 15 km/h 1633 m -11.6 m/s Praha (CZ) 401.10 MHz Turnov (CZ) 0.00 km UNKNOWN
V3111396 RS41-SGP 2024-07-17 13:14:26 58.9895 5.57625 132 ° 30 km/h 95 m -12.5 m/s Stavanger (NO) 403.000 MHz Randaberg (NO) 0.00 km FOUND
U3321051 RS41-SG 2024-07-17 13:14:12 46.9171 7.4783 188 ° 4 km/h 1103 m -14.2 m/s Payerne (CH) 403.501 MHz Belp (CH) 0.00 km UNKNOWN
ME3122057 M10 2024-07-17 13:14:07 45.0937 20.3774 66 ° 13 km/h 548 m -15.1 m/s Belgrade (RS) 402.799 MHz Čenta (RS) 0.00 km UNKNOWN
U4244719 RS41 2024-07-17 13:14:00 44.6988 8.32809 205 ° 13 km/h 476 m -4.5 m/s Cuneo-Levaldigi (IT) 403.702 MHz Canelli (IT) 0.00 km UNKNOWN
W1634489 RS41 2024-07-17 13:13:59 47.7914 19.2133 164 ° 7 km/h 249 m -15.3 m/s Budapest (HU) 403.700 MHz Vác (HU) 0.00 km UNKNOWN
W1510322 RS41 2024-07-17 13:13:41 46.6304 20.0975 35 ° 7 km/h 328 m -13.6 m/s Szeged (HU) 402.300 MHz Csongrád (HU) 0.00 km FOUND
W1610494 RS41-SG 2024-07-17 13:13:26 28.5094 -81.3471 4 ° 17 km/h 207 m -2.4 m/s Cape Canaveral [FL] (US) 401.001 MHz Conway [FL] (US) 0.00 km UNKNOWN
W0324812 RS41 2024-07-17 13:12:54 49.5229 20.4068 39 ° 48 km/h 4189 m -14.7 m/s Poprad (SK) 400.602 MHz Szczawnica (PL) 0.00 km UNKNOWN
V4440475 RS41 2024-07-17 13:12:46 24.8948 120.361 338 ° 20 km/h 12420 m -12.2 m/s New Taipei (TW) 400.30 MHz Miaoli (TW) 0.00 km LOST
W1731871 RS41-SG 2024-07-17 13:11:31 43.0446 -82.9476 67 ° 128 km/h 12993 m -18.2 m/s Waterford [MI] (US) 403.978 MHz Lapeer [MI] (US) 0.00 km UNKNOWN
MEB101884 M20 2024-07-17 13:11:15 51.8975 17.8907 54 ° 28 km/h 359 m -6.2 m/s Wrocław (PL) 403.000 MHz Pleszew (PL) 0.00 km FOUND
W1654305 RS41 2024-07-17 13:11:09 34.9329 -120.864 220 ° 19 km/h 5087 m -13.0 m/s Santa Maria [CA] (US) 400.251 MHz Grover Beach [CA] (US) 0.00 km LOST
D24004377 DFM09 2024-07-17 13:10:28 41.0342 -72.4418 52 ° 37 km/h 2012 m -5.2 m/s Upton [NY] (US) 405.410 MHz Hampton Bays [NY] (US) 0.00 km UNKNOWN
W1420513 RS41 2024-07-17 13:10:27 44.8515 12.1487 314 ° 15 km/h 97 m -9.9 m/s San Pietro Capofiume (IT) 404.60 MHz Codigoro (IT) 0.00 km UNKNOWN
V4530657 RS41 2024-07-17 13:10:10 46.1072 16.2671 208 ° 20 km/h 581 m -14.7 m/s Zagreb (HR) 405.300 MHz Breznički Hum (HR) 0.00 km FOUND
W1510012 RS41-SGP 2024-07-17 13:08:53 -19.0053 -47.507 92 ° 72 km/h 7379 m -6.7 m/s Uberlândia (BR) 403.001 MHz Uberlândia (BR) 0.00 km UNKNOWN
V2441397 RS41-SG 2024-07-17 13:08:46 -37.3661 145.553 57 ° 19 km/h 377 m -7.4 m/s Melbourne (AU) 401.500 MHz Alexandra (AU) 0.00 km UNKNOWN
D23073617 DFM17 2024-07-17 13:08:40 46.9864 -67.0124 97 ° 128 km/h 10368 m -4.9 m/s Caribou [ME] (US) 403.611 MHz 0.00 km UNKNOWN
W1761263 RS41 2024-07-17 13:08:22 38.0404 -121.976 127 ° 20 km/h 1362 m -8.5 m/s Oakland [CA] (US) 404.000 MHz Bay Point [CA] (US) 0.00 km UNKNOWN
W0910411 RS41-NG 2024-07-17 13:07:55 40.8171 -80.0768 50 ° 74 km/h 14144 m -9.7 m/s Pittsburgh [PA] (US) 401.001 MHz Butler [PA] (US) 0.00 km UNKNOWN
U3410978 RS41 2024-07-17 13:07:32 49.9172 12.4625 61 ° 15 km/h 938 m -4.3 m/s Kümmersbruck (DE) 402.700 MHz Mariánské Lázně (CZ) 0.00 km UNKNOWN
MEA800878 M20 2024-07-17 13:07:28 43.8909 5.01296 142 ° 28 km/h 230 m -8.6 m/s Nîmes (FR) 405.000 MHz Le Thor (FR) 0.00 km UNKNOWN
V0940228 RS41 2024-07-17 13:07:21 -36.2621 -63.1789 66 ° 54 km/h 4336 m -21.0 m/s Santa Rosa (AR) 405.281 MHz Pellegrini (AR) 0.00 km UNKNOWN
W0931235 RS41 2024-07-17 13:04:59 32.1703 -111.706 269 ° 67 km/h 24623 m -27.3 m/s Tucson [AZ] (US) 405.200 MHz Tucson Estates [AZ] (US) 0.00 km UNKNOWN
IMS2F55F8 IMS100 2024-07-17 13:03:28 1.15237 103.628 4 ° 22 km/h 568 m -9999.0 m/s Singapore (SG) 401.998 MHz 0.00 km LOST
T4050404 RS41 2024-07-17 13:03:09 24.348 53.5201 262 ° 48 km/h 12295 m -9.8 m/s Abu Dhabi (AE) 401.701 MHz 0.00 km LOST
R1048049 RS41 2024-07-17 13:01:56 -33.7407 -70.5987 257 ° 20 km/h 1583 m -8.2 m/s Santo Domingo (CL) 403.000 MHz Puente Alto (CL) 0.00 km UNKNOWN
V3840420 RS41 2024-07-17 13:00:29 -28.2766 155.051 95 ° 43 km/h 4045 m -6.7 m/s Brisbane (AU) 401.500 MHz 0.00 km LOST
MEAA02216 M20 2024-07-17 13:00:24 64.1067 9.20384 351 ° 13 km/h 832 m -10.6 m/s Ørland (NO) 402.401 MHz Sistranda (NO) 0.00 km LOST
D24000136 DFM09 2024-07-17 13:00:18 42.9074 -73.367 273 ° 96 km/h 32760 m 4.1 m/s Albany [NY] (US) 401.010 MHz Cohoes [NY] (US) 0.00 km UNKNOWN
W0220395 RS41 2024-07-17 12:59:08 44.5507 26.1313 263 ° 6 km/h 412 m -8.8 m/s Bucarest (RO) 403.921 MHz Tunari (RO) 0.00 km FOUND
W1740390 RS41 2024-07-17 12:58:57 32.984 -117.584 265 ° 9 km/h 3380 m -13.2 m/s San Diego [CA] (US) 400.650 MHz Solana Beach [CA] (US) 0.00 km LOST
V0650302 RS41 2024-07-17 12:58:42 -31.0151 -63.6828 198 ° 26 km/h 1676 m -14.4 m/s Córdoba (AR) 402.001 MHz Villa del Totoral (AR) 0.00 km UNKNOWN
V0710916 RS41 2024-07-17 12:57:10 -39.0008 -67.0973 113 ° 70 km/h 18755 m -49.0 m/s 405.300 MHz Villa Regina (AR) 0.00 km UNKNOWN
V3920128 RS41-SG 2024-07-17 12:56:47 -33.7978 139.361 14 ° 87 km/h 7187 m -9.5 m/s Adelaide (AU) 401.500 MHz Clare (AU) 0.00 km UNKNOWN
V3742440 RS41 2024-07-17 12:54:58 -32.3622 118.081 113 ° 180 km/h 9454 m -9.8 m/s Perth (AU) 401.502 MHz Merredin (AU) 0.00 km UNKNOWN
V1040220 RS41 2024-07-17 12:54:53 49.7361 8.00745 101 ° 15 km/h 475 m -10.4 m/s Idar-Oberstein (DE) 402.700 MHz Bad Kreuznach (DE) 0.00 km UNKNOWN
MEB100848 M20 2024-07-17 12:50:49 55.3368 17.9877 302 ° 46 km/h 28034 m -27.6 m/s Łeba (PL) 403.603 MHz Władysławowo (PL) 0.00 km LOST
D22015220 DFM09 2024-07-17 12:46:12 12.1895 -69.3906 324 ° 50 km/h 1249 m -15.3 m/s Willemstad (CW) 405.511 MHz 0.00 km LOST
V0530323 RS41 2024-07-17 12:43:51 56.6005 3.62598 40 ° 24 km/h 15622 m -42.9 m/s Ekofisk (NO) 403.000 MHz 0.00 km LOST
V1641005 RS41 2024-07-17 12:41:56 53.9998 11.094 75 ° 59 km/h 831 m -12.5 m/s Pinneberg (DE) 403.00 MHz Wismar (DE) 0.00 km UNKNOWN
V1210776 RS41-SG 2024-07-17 12:37:42 80.0079 -85.1988 248 ° 11 km/h 18904 m 4.9 m/s Eureka [NU] (CA) 405.000 MHz 0.00 km UNKNOWN
D22013966 DFM 2024-07-17 12:30:02 46.9697 3.69254 273 ° 7 km/h 1659 m -4.4 m/s Bourges (FR) 405.011 MHz Decize (FR) 0.00 km UNKNOWN
W0950429 RS41 2024-07-17 12:25:02 51.2211 -0.296984 75 ° 15 km/h 474 m -1.6 m/s Larkhill (GB) 404.402 MHz Dorking (GB) 0.00 km UNKNOWN
V0931637 RS41 2024-07-17 12:04:38 -36.8481 176.329 76 ° 31 km/h 6283 m -16.9 m/s Whenuapai (NZ) 403.001 MHz Pauanui (NZ) 0.00 km LOST
U3270057 RS41 2024-07-17 11:56:37 52.9178 8.08564 73 ° 20 km/h 209 m -13.0 m/s Meppen (DE) 404.500 MHz Cloppenburg (DE) 0.00 km UNKNOWN
V0650091 RS41 2024-07-17 11:54:56 -40.9847 175.842 304 ° 15 km/h 346 m -11.8 m/s Paraparaumu (NZ) 400.501 MHz Masterton (NZ) 0.00 km UNKNOWN
U1220718 RS41 2024-07-17 11:48:26 48.2578 11.9174 205 ° 9 km/h 609 m -11.9 m/s Altenstadt (DE) 402.50 MHz Erding (DE) 0.00 km FOUND
V1350254 RS41-SG 2024-07-17 11:44:15 44.7385 -63.0768 79 ° 85 km/h 8674 m 5.9 m/s Shearwater [NS] (CA) 402.501 MHz 0.00 km UNKNOWN
N3520257 RS41 2024-07-17 09:08:16 35.5732 3.35749 92 ° 50 km/h 11061 m -18.1 m/s 405.699 MHz 0.00 km UNKNOWN
D22013187 DFM17 2024-07-17 08:39:50 46.9184 4.211 290 ° 7 km/h 831 m -1.9 m/s Bourges (FR) 404.911 MHz Autun (FR) 0.00 km UNKNOWN
U3270080 RS41 2024-07-17 08:36:00 52.9154 7.98623 71 ° 30 km/h 160 m -13.5 m/s Meppen (DE) 405.100 MHz Cloppenburg (DE) 0.00 km UNKNOWN
V0411347 RS41 2024-07-17 08:17:30 40.466 22.8775 130 ° 7 km/h 173 m -1.7 m/s Thessaloniki (GR) 403.001 MHz Néoi Epivátes (GR) 0.00 km UNKNOWN
V2951169 RS41 2024-07-17 08:10:39 23.9684 53.1802 253 ° 37 km/h 6552 m -19.2 m/s Abu Dhabi (AE) 405.300 MHz 0.00 km UNKNOWN
V5144526 RS41 2024-07-17 08:05:02 56.4515 9.27611 50 ° 17 km/h 142 m -13.1 m/s Karup (DK) 405.300 MHz Viborg (DK) 0.00 km FOUND
V4530890 RS41 2024-07-17 07:58:43 61.5178 23.5826 287 ° 26 km/h 259 m -9.6 m/s Jokioinen (FI) 403.000 MHz Ylöjärvi (FI) 0.00 km UNKNOWN
V3640031 RS41 2024-07-17 07:51:18 53.1797 15.0365 75 ° 31 km/h 126 m -2.6 m/s Lindenberg (DE) 405.10 MHz Pyrzyce (PL) 0.00 km FOUND
V4551124 RS41-SG 2024-07-17 07:47:41 33.3603 126.623 33 ° 48 km/h 2483 m -3.7 m/s 403.301 MHz 0.00 km UNKNOWN
V4251252 RS41 2024-07-17 07:41:51 50.5803 14.8106 112 ° 7 km/h 474 m -10.3 m/s Praha (CZ) 404.200 MHz Mimoň (CZ) 0.00 km FOUND
MEB101891 M20 2024-07-17 07:30:43 50.6242 21.2726 198 ° 2 km/h 396 m -7.2 m/s Tarnów (PL) 405.801 MHz Staszów (PL) 0.00 km UNKNOWN
ME2B22879 M10 2024-07-17 07:24:07 43.5397 21.6718 298 ° 9 km/h 2921 m -13.7 m/s Niš (RS) 402.400 MHz Aleksinac (RS) 0.00 km UNKNOWN
ME312204C M10 2024-07-17 07:15:58 45.0462 20.2434 12 ° 19 km/h 589 m -14.2 m/s Belgrade (RS) 402.799 MHz Novi Slankamen (RS) 0.00 km UNKNOWN
U3824768 RS41 2024-07-17 07:15:33 48.3321 11.6808 199 ° 20 km/h 834 m -4.2 m/s Hohenpeissenberg (DE) 402.90 MHz Freising (DE) 0.00 km UNKNOWN
W0130590 RS41 2024-07-17 07:13:33 35.7269 33.8138 149 ° 17 km/h 2415 m -4.1 m/s Nicosia (CY) 403.000 MHz Kythréa (CY) 0.00 km LOST
ME2B22803 M10 2024-07-17 07:11:42 44.434 22.2451 305 ° 35 km/h 1756 m -13.7 m/s 404.200 MHz Majdanpek (RS) 0.00 km UNKNOWN
V1050326 RS41 2024-07-17 07:08:36 49.9064 7.84571 44 ° 19 km/h 452 m -12.6 m/s Idar-Oberstein (DE) 402.700 MHz Bad Kreuznach (DE) 0.00 km UNKNOWN
ME2B22387 M10 2024-07-17 07:05:46 43.4358 19.8823 118 ° 24 km/h 8705 m -15.1 m/s Sjenica (RS) 403.200 MHz Nova Varoš (RS) 0.00 km UNKNOWN
W0950530 RS41 2024-07-17 07:02:54 51.0624 -0.606405 111 ° 11 km/h 883 m -6.3 m/s Larkhill (GB) 404.403 MHz Haslemere (GB) 0.00 km UNKNOWN
T0220615 RS41-SGP 2024-07-17 06:20:10 -37.1535 145.915 88 ° 15 km/h 946 m -6.0 m/s Melbourne (AU) 402.000 MHz Alexandra (AU) 0.00 km UNKNOWN
T0220617 RS41-SGP-Ozone 2024-07-17 06:13:37 -37.1798 145.903 21 ° 31 km/h 3291 m -6.6 m/s Melbourne (AU) 402.502 MHz Alexandra (AU) 0.00 km UNKNOWN
MEB004829 M20 2024-07-17 06:01:19 46.2426 15.0312 254 ° 15 km/h 846 m -6.3 m/s Ljubljana (SI) 403.001 MHz Tabor (SI) 0.00 km UNKNOWN
U1220681 RS41 2024-07-17 05:43:09 48.3707 12.0977 192 ° 11 km/h 897 m -3.4 m/s Altenstadt (DE) 402.50 MHz Erding (DE) 0.00 km UNKNOWN
U3270120 RS41 2024-07-17 05:41:37 52.9136 8.11252 62 ° 31 km/h 205 m -15.4 m/s Meppen (DE) 404.50 MHz Cloppenburg (DE) 0.00 km UNKNOWN
D18030285 DFM 2024-07-17 05:37:08 48.6579 17.4114 189 ° 20 km/h 650 m -9.0 m/s Záhorie (SK) 403.631 MHz Senica (SK) 0.00 km UNKNOWN
V3830813 RS41 2024-07-17 05:22:56 -37.5716 145.559 11 ° 48 km/h 3304 m -7.7 m/s Melbourne (AU) 401.001 MHz Healesville (AU) 0.00 km UNKNOWN
V1854730 RS41 2024-07-17 04:35:37 47.6717 12.1158 191 ° 15 km/h 1453 m -13.5 m/s Innsbruck (AT) 404.10 MHz Niederndorf (AT) 0.00 km UNKNOWN
V0810269 RS41 2024-07-17 04:28:46 30.916 35.006 320 ° 11 km/h 939 m -14.3 m/s Mifrasit Base (IL) 403.001 MHz Dimona (IL) 0.00 km UNKNOWN
V1741185 RS41 2024-07-17 04:18:45 47.4005 15.9553 140 ° 7 km/h 689 m -7.3 m/s Graz (AT) 404.70 MHz Rohrbach an der Lafnitz (AT) 0.00 km UNKNOWN
V5144525 RS41 2024-07-17 04:07:47 48.6099 14.7768 170 ° 15 km/h 1075 m -4.9 m/s Linz (AT) 403.40 MHz Weitra (AT) 0.00 km UNKNOWN
D24005439 DFM17 2024-07-17 02:53:03 40.2477 -88.6161 46 ° 26 km/h 399 m -4.3 m/s Lincoln [IL] (US) 405.010 MHz Mahomet [IL] (US) 0.00 km UNKNOWN
D24000604 DFM 2024-07-17 02:49:04 27.8482 -83.2977 291 ° 11 km/h 2764 m -2.0 m/s Tampa [FL] (US) 403.010 MHz Seminole [FL] (US) 0.00 km LOST
ME34224C1 M10 2024-07-17 02:48:26 48.8815 3.09168 116 ° 22 km/h 572 m -2.2 m/s Trappes (FR) 401.000 MHz Coulommiers (FR) 0.00 km UNKNOWN
V3420751 RS41 2024-07-17 02:26:43 54.6161 -5.23723 105 ° 44 km/h 4754 m -2.3 m/s Castor Bay (IE) 403.90 MHz Stranraer (GB) 0.00 km LOST
S4250705 RS41 2024-07-17 02:26:14 55.6339 24.2815 29 ° 31 km/h 294 m -9.6 m/s Kaunas (LT) 401.000 MHz Panevėžys (LT) 0.00 km UNKNOWN
W1340609 RS41 2024-07-17 02:23:36 52.3146 6.21123 56 ° 26 km/h 92 m -3.5 m/s De Bilt (NL) 403.90 MHz Diepenveen (NL) 0.00 km UNKNOWN
D23073939 DFM17 2024-07-17 02:23:24 41.135 -95.3482 175 ° 9 km/h 1216 m -3.2 m/s Valley [NE] (US) 403.210 MHz Council Bluffs [IA] (US) 0.00 km UNKNOWN
D23073107 DFM17 2024-07-17 02:19:52 47.9009 -117.532 279 ° 4 km/h 1187 m -6.9 m/s Spokane [WA] (US) 403.211 MHz Spokane [WA] (US) 0.00 km UNKNOWN
U3460394 RS41-SG 2024-07-17 02:18:15 47.3534 8.01612 136 ° 2 km/h 748 m -2.8 m/s Payerne (CH) 403.501 MHz Oberentfelden (CH) 0.00 km UNKNOWN
IMS2F55F7 IMS100 2024-07-17 02:17:24 1.13583 103.735 338 ° 9 km/h 279 m -9999.0 m/s Singapore (SG) 401.962 MHz 0.00 km LOST
V4530892 RS41 2024-07-17 02:15:00 61.2306 24.0363 303 ° 22 km/h 171 m -9.0 m/s Jokioinen (FI) 403.000 MHz Valkeakoski (FI) 0.00 km UNKNOWN
D22058675 DFM17 2024-07-17 02:12:26 27.076 55.2661 255 ° 24 km/h 8327 m -15.8 m/s 402.210 MHz 0.00 km UNKNOWN
V2910163 RS41 2024-07-17 02:05:14 45.8515 9.23766 212 ° 11 km/h 1065 m -2.0 m/s Cameri (IT) 404.90 MHz Valmadrera (IT) 0.00 km UNKNOWN
MEAF00370 M20 2024-07-17 02:04:14 48.6968 16.2573 112 ° 22 km/h 383 m -9.5 m/s Vienna (AT) 403.500 MHz Laa an der Thaya (AT) 0.00 km UNKNOWN
D23078084 DFM09 2024-07-17 02:01:08 44.7376 -96.9168 143 ° 41 km/h 2463 m -3.6 m/s Aberdeen [SD] (US) 405.211 MHz Watertown [SD] (US) 0.00 km UNKNOWN
D23076861 DFM09 2024-07-17 01:59:48 40.8595 -72.441 92 ° 57 km/h 2705 m -4.3 m/s Upton [NY] (US) 405.410 MHz Hampton Bays [NY] (US) 0.00 km LOST
D23077910 DFM09 2024-07-17 01:59:48 42.7071 -73.4669 274 ° 44 km/h 24194 m -30.1 m/s Albany [NY] (US) 401.010 MHz Troy [NY] (US) 0.00 km UNKNOWN
D23073843 DFM17 2024-07-17 01:59:22 37.2779 -80.7498 86 ° 28 km/h 2174 m -13.3 m/s Blacksburg [VA] (US) 404.011 MHz Radford [VA] (US) 0.00 km UNKNOWN
D23072786 DFM17 2024-07-17 01:58:52 40.8741 -100.382 88 ° 104 km/h 10530 m -3.3 m/s North Platte [NE] (US) 403.011 MHz North Platte [NE] (US) 0.00 km UNKNOWN
D23072398 DFM17 2024-07-17 01:58:21 31.7179 -107.518 284 ° 33 km/h 2202 m -3.8 m/s Santa Teresa [NM] (US) 401.410 MHz Deming [NM] (US) 0.00 km UNKNOWN
ME35222F2 M10 2024-07-17 01:54:30 38.2544 -0.41457 210 ° 13 km/h 59 m -5.7 m/s Murcia (ES) 403.401 MHz Alicante (ES) 0.00 km LOST
W1140009 RS41 2024-07-17 01:54:28 10.5894 106.089 60 ° 57 km/h 1039 m -13.8 m/s Ho Chi Minh (VN) 403.000 MHz 0.00 km UNKNOWN
V1210757 RS41-SG 2024-07-17 01:53:27 79.9152 -85.7611 352 ° 26 km/h 132 m -16.7 m/s Eureka [NU] (CA) 405.000 MHz 0.00 km UNKNOWN
V4110249 RS41 2024-07-17 01:53:12 40.7316 -2.88183 342 ° 20 km/h 1405 m -4.8 m/s Madrid (ES) 403.000 MHz Guadalajara (ES) 0.00 km UNKNOWN
ME9B00698 M20 2024-07-17 01:52:21 44.9333 0.506619 161 ° 15 km/h 486 m -3.8 m/s Bordeaux (FR) 402.803 MHz Bergerac (FR) 0.00 km UNKNOWN
MEA703822 M20 2024-07-17 01:52:04 48.4082 -3.95399 146 ° 13 km/h 500 m -3.6 m/s Guipavas (FR) 404.000 MHz Landivisiau (FR) 0.00 km FOUND
D23074057 DFM17 2024-07-17 01:51:52 45.9735 -100.006 140 ° 39 km/h 3047 m -9.2 m/s Bismarck [ND] (US) 403.810 MHz 0.00 km UNKNOWN
V2920474 RS41 2024-07-17 01:51:32 37.6707 12.3393 190 ° 26 km/h 58 m -5.5 m/s Trapani-Birgi (IT) 404.500 MHz Petrosino (IT) 0.00 km LOST
V3250143 RS41 2024-07-17 01:50:10 23.5101 57.3852 232 ° 52 km/h 5612 m -12.7 m/s Muscat (OM) 403.000 MHz 0.00 km UNKNOWN
MTS9BAAE8 MTS01 2024-07-17 01:49:11 38.4917 26.5222 37 ° 74 km/h 15454 m -9999.0 m/s Izmir (TR) 401.496 MHz Mordoğan (TR) 0.00 km UNKNOWN
D23073293 DFM17 2024-07-17 01:47:48 44.725 -91.7878 132 ° 35 km/h 1162 m -7.7 m/s Chanhassen [MN] (US) 403.610 MHz Menomonie [WI] (US) 0.00 km UNKNOWN
ME342270F M10 2024-07-17 01:46:57 42.0205 9.13191 87 ° 24 km/h 4676 m -4.1 m/s Ajaccio (FR) 400.971 MHz Corte (FR) 0.00 km UNKNOWN
D24000127 DFM17 2024-07-17 01:45:58 35.2528 -112.339 25 ° 22 km/h 7181 m -12.9 m/s Flagstaff [AZ] (US) 404.810 MHz Chino Valley [AZ] (US) 0.00 km UNKNOWN
W0140544 RS41-NG 2024-07-17 01:45:39 39.0492 -95.3807 208 ° 17 km/h 470 m -7.3 m/s Topeka [KS] (US) 404.000 MHz Lawrence [KS] (US) 0.00 km UNKNOWN
D23073185 DFM17 2024-07-17 01:45:31 41.1269 -115.736 15 ° 30 km/h 7298 m -4.8 m/s Elko [NV] (US) 403.210 MHz Elko [NV] (US) 0.00 km UNKNOWN
D23074061 DFM17 2024-07-17 01:45:24 30.5044 -82.2105 55 ° 20 km/h 1031 m -9.9 m/s Jacksonville [FL] (US) 403.211 MHz Macclenny [FL] (US) 0.00 km UNKNOWN
V4540584 RS41 2024-07-17 01:42:02 53.0142 21.2456 66 ° 9 km/h 176 m -7.2 m/s Legionowo (PL) 404.499 MHz Różan (PL) 0.00 km UNKNOWN
V5020942 RS41 2024-07-17 01:41:23 50.1589 -4.67508 106 ° 20 km/h 77 m -12.5 m/s Camborne (GB) 405.70 MHz Saint Austell (GB) 0.00 km LOST
V2850385 RS41 2024-07-17 01:40:59 46.3483 13.2931 307 ° 11 km/h 1802 m -4.9 m/s Udine-Rivolto (IT) 404.00 MHz Gemona del Friuli (IT) 0.00 km FOUND
D23066706 DFM 2024-07-17 01:40:27 32.819 -80.4424 72 ° 11 km/h 3551 m -6.3 m/s Charleston [SC] (US) MHz Summerville [SC] (US) 0.00 km UNKNOWN
W0910445 RS41 2024-07-17 01:40:13 32.5656 -98.1487 308 ° 13 km/h 3003 m -12.7 m/s Fort Worth [TX] (US) 404.800 MHz Mineral Wells [TX] (US) 0.00 km UNKNOWN
V3750660 RS41 2024-07-17 01:39:18 55.2231 9.85445 30 ° 22 km/h 592 m -3.3 m/s Schleswig (DE) 402.50 MHz Assens (DK) 0.00 km LOST
V3250860 RS41 2024-07-17 01:37:44 37.5839 -6.50543 171 ° 11 km/h 427 m -5.7 m/s Huelva (ES) 402.501 MHz Valverde del Camino (ES) 0.00 km UNKNOWN
D23073003 DFM17 2024-07-17 01:37:13 34.7407 -77.3054 27 ° 19 km/h 6888 m -3.8 m/s Newport [NC] (US) 400.810 MHz Piney Green [NC] (US) 0.00 km UNKNOWN
MEB101878 M20 2024-07-17 01:37:03 51.8985 17.34 96 ° 33 km/h 751 m -12.0 m/s Wrocław (PL) 403.000 MHz Borek Wielkopolski (PL) 0.00 km UNKNOWN
V4150305 RS41-SGP 2024-07-17 01:35:37 43.5669 -7.98532 48 ° 13 km/h 2511 m -8.6 m/s A Coruña (ES) 404.000 MHz Cedeira (ES) 0.00 km UNKNOWN
D23077402 DFM 2024-07-17 01:35:14 33.4326 -85.0977 348 ° 28 km/h 13841 m -6.6 m/s Peachtree City [GA] (US) MHz Carrollton [GA] (US) 0.00 km UNKNOWN
V1721013 RS41 2024-07-17 01:34:10 39.0477 -8.51334 119 ° 13 km/h 174 m -5.6 m/s Lisbon (PT) 403.021 MHz Coruche (PT) 0.00 km UNKNOWN
V3310816 RS41 2024-07-17 01:32:33 53.0811 -0.660711 82 ° 28 km/h 134 m -6.9 m/s Watnall (GB) 404.201 MHz Balderton (GB) 0.00 km FOUND
V3830839 RS41 2024-07-17 01:30:10 -26.6374 147.86 53 ° 39 km/h 2202 m -12.6 m/s Charleville (AU) 401.497 MHz Roma (AU) 0.00 km UNKNOWN
W0950556 RS41 2024-07-17 01:29:50 55.1005 -1.25027 117 ° 30 km/h 266 m -4.1 m/s Albemarle (GB) 405.103 MHz Whitley Bay (GB) 0.00 km LOST
MEB003283 M20 2024-07-17 01:29:30 37.7565 23.57 283 ° 13 km/h 20512 m -11.0 m/s Athens (GR) 405.199 MHz Aígina (GR) 0.00 km LOST
V2830389 RS41 2024-07-17 01:29:26 41.8076 12.3928 180 ° 7 km/h 100 m -6.0 m/s Pratica di Mare (IT) 405.800 MHz Vatican (VA) 0.00 km FOUND
V4610002 RS41 2024-07-17 01:28:18 33.3782 126.597 16 ° 70 km/h 2389 m -6.4 m/s 403.301 MHz 0.00 km UNKNOWN
W1927026 RS41 2024-07-17 01:27:27 51.8403 8.02821 47 ° 19 km/h 175 m -9.1 m/s Essen (DE) 405.30 MHz Ennigerloh (DE) 0.00 km FOUND
V2930004 RS41 2024-07-17 01:27:13 59.7865 25.181 337 ° 43 km/h 658 m -9.7 m/s Tallinn (EE) 404.001 MHz Püünsi (EE) 0.00 km LOST
W0120446 RS41-SGP 2024-07-17 01:26:44 49.4853 20.1899 140 ° 13 km/h 1598 m -14.0 m/s Poprad (SK) 400.602 MHz Nowy Targ (PL) 0.00 km UNKNOWN
V4740719 RS41 2024-07-17 01:25:29 51.1535 11.2975 28 ° 20 km/h 237 m -3.6 m/s Meiningen (DE) 402.30 MHz Sömmerda (DE) 0.00 km FOUND
V3520913 RS41 2024-07-17 01:25:19 -23.1314 -41.8338 94 ° 157 km/h 8662 m -4.5 m/s Galeão (BR) 405.301 MHz Cabo Frio (BR) 0.00 km LOST
MEA800893 M20 2024-07-17 01:25:00 43.9403 5.18632 147 ° 44 km/h 850 m -5.0 m/s Nîmes (FR) 405.001 MHz Pernes-les-Fontaines (FR) 0.00 km UNKNOWN
V3934142 RS41 2024-07-17 01:24:54 -23.7991 -45.241 18 ° 2 km/h 1372 m -10.8 m/s São Paulo (BR) 405.300 MHz Caraguatatuba (BR) 0.00 km UNKNOWN
W1634735 RS41 2024-07-17 01:24:20 47.8211 19.187 135 ° 19 km/h 471 m -11.7 m/s Budapest (HU) 403.700 MHz Vác (HU) 0.00 km UNKNOWN
V3230336 RS41-SG 2024-07-17 01:24:12 67.4543 26.3984 345 ° 9 km/h 6002 m -16.2 m/s Sodankyla (FI) 404.000 MHz Sodankylä (FI) 0.00 km UNKNOWN
U3420210 RS41 2024-07-17 01:23:42 50.0295 12.6155 94 ° 28 km/h 1056 m -6.5 m/s Kümmersbruck (DE) 402.700 MHz Mariánské Lázně (CZ) 0.00 km UNKNOWN
V3140525 RS41 2024-07-17 01:23:42 52.1045 -9.6761 25 ° 31 km/h 2948 m -16.4 m/s Cahersiveen (IE) 405.300 MHz Killarney (IE) 0.00 km UNKNOWN
D23073505 DFM17 2024-07-17 01:23:38 37.285 -93.7075 133 ° 48 km/h 5117 m -9.8 m/s Springfield [MO] (US) 400.400 MHz Republic [MO] (US) 0.00 km UNKNOWN
V2520922 RS41 2024-07-17 01:23:17 -29.8769 151.347 90 ° 19 km/h 1191 m -8.0 m/s Moree (AU) 401.300 MHz Inverell (AU) 0.00 km UNKNOWN
V3742439 RS41 2024-07-17 01:23:10 -32.035 117.703 112 ° 124 km/h 7549 m -12.1 m/s Perth (AU) 401.502 MHz Merredin (AU) 0.00 km UNKNOWN
W1840932 RS41 2024-07-17 01:22:48 45.3294 -123.317 211 ° 17 km/h 553 m -16.4 m/s Salem [OR] (US) 401.40 MHz McMinnville [OR] (US) 0.00 km FOUND
V3750725 RS41 2024-07-17 01:22:26 54.2025 8.22586 27 ° 35 km/h 301 m -4.9 m/s Norderney (DE) 404.10 MHz Cuxhaven (DE) 0.00 km LOST
ME2B228AA M10 2024-07-17 01:21:52 43.483 21.6321 271 ° 11 km/h 2878 m -14.8 m/s Niš (RS) 402.400 MHz Aleksinac (RS) 0.00 km UNKNOWN
V3824300 RS41 2024-07-17 01:21:44 -34.5755 138.973 37 ° 43 km/h 1186 m -6.0 m/s Adelaide (AU) 401.501 MHz Tanunda (AU) 0.00 km UNKNOWN
T4820663 RS41 2024-07-17 01:21:30 50.0125 17.6996 40 ° 4 km/h 625 m -7.1 m/s Prostějov (CZ) 402.10 MHz Krnov (CZ) 0.00 km UNKNOWN
V2951374 RS41 2024-07-17 01:20:29 54.8561 13.8879 78 ° 24 km/h 483 m -6.4 m/s Greifswald (DE) 402.30 MHz Rønne (DK) 0.00 km LOST
V3111375 RS41 2024-07-17 01:20:06 59.2009 5.1274 168 ° 20 km/h 397 m -13.4 m/s Stavanger (NO) 403.000 MHz Åkrehamn (NO) 0.00 km LOST
V2841498 RS41 2024-07-17 01:20:00 40.1883 17.939 131 ° 22 km/h 106 m -6.5 m/s Galatina (IT) 403.50 MHz Nardò (IT) 0.00 km FOUND
D23073691 DFM17 2024-07-17 01:19:44 47.0137 -67.2869 71 ° 148 km/h 11368 m -6.9 m/s Caribou [ME] (US) 403.611 MHz 0.00 km UNKNOWN
V3814363 RS41 2024-07-17 01:19:38 43.6358 -3.16208 83 ° 39 km/h 4735 m -13.0 m/s Santander (ES) 401.500 MHz Castro-Urdiales (ES) 0.00 km LOST
W0444220 RS41 2024-07-17 01:18:55 35.0676 -120.658 65 ° 6 km/h 5030 m -5.4 m/s Santa Maria [CA] (US) 400.251 MHz Grover Beach [CA] (US) 0.00 km LOST
D23077901 DFM09 2024-07-17 01:17:25 41.671 -89.8606 133 ° 35 km/h 1177 m -8.7 m/s Davenport [IA] (US) 403.411 MHz Sterling [IL] (US) 0.00 km UNKNOWN
ME3122040 M10 2024-07-17 01:16:42 45.06 20.3227 316 ° 41 km/h 287 m -12.4 m/s Belgrade (RS) 402.799 MHz Čenta (RS) 0.00 km UNKNOWN
V2441400 RS41 2024-07-17 01:16:17 -37.4655 145.288 358 ° 9 km/h 525 m -7.0 m/s Melbourne (AU) 401.500 MHz Whittlesea (AU) 0.00 km LOST
W1810408 RS41 2024-07-17 01:15:36 38.1978 -122.309 35 ° 30 km/h 1298 m -11.9 m/s Oakland [CA] (US) 404.001 MHz American Canyon [CA] (US) 0.00 km UNKNOWN
V3657942 RS41 2024-07-17 01:15:19 53.0531 14.7867 76 ° 46 km/h 324 m -7.8 m/s Lindenberg (DE) 405.10 MHz Pyrzyce (PL) 0.00 km FOUND
S0910167 RS41-SG 2024-07-17 01:15:00 58.3549 18.5182 6 ° 30 km/h 3390 m -16.1 m/s Visby (SE) 405.300 MHz Nynäshamn (SE) 0.00 km LOST
V0830106 RS41 2024-07-17 01:13:46 -35.0335 147.9 12 ° 24 km/h 1016 m -5.1 m/s Wagga Wagga (AU) 402.501 MHz Junee (AU) 0.00 km UNKNOWN
MEB100851 M20 2024-07-17 01:13:08 55.4403 17.3924 263 ° 35 km/h 25530 m -24.3 m/s Łeba (PL) 403.604 MHz Łeba (PL) 0.00 km LOST
V0920398 RS41 2024-07-17 01:12:59 50.1144 7.94592 72 ° 26 km/h 674 m -16.0 m/s Idar-Oberstein (DE) 402.700 MHz Taunusstein (DE) 0.00 km UNKNOWN
S0930176 RS41 2024-07-17 01:12:42 65.6756 22.5818 331 ° 4 km/h 2533 m -16.1 m/s Lulea (SE) 403.001 MHz Luleå (SE) 0.00 km LOST
T4150901 RS41 2024-07-17 01:12:22 24.3747 53.3614 250 ° 69 km/h 10691 m -7.5 m/s Abu Dhabi (AE) 401.700 MHz 0.00 km LOST
V0750385 RS41 2024-07-17 01:11:57 49.2908 9.97262 71 ° 22 km/h 588 m -9.4 m/s Stuttgart (DE) 404.50 MHz Rotenburg (DE) 0.00 km FOUND
U3231078 RS41 2024-07-17 01:10:50 53.3762 10.5575 35 ° 37 km/h 284 m -14.9 m/s Bergen (DE) 405.70 MHz Geesthacht (DE) 0.00 km UNKNOWN
W1610497 RS41 2024-07-17 01:10:33 28.4986 -81.2393 17 ° 7 km/h 108 m -15.7 m/s Cape Canaveral [FL] (US) 401.001 MHz Alafaya [FL] (US) 0.00 km UNKNOWN
V3430132 RS41 2024-07-17 01:10:11 -33.3664 -71.0359 162 ° 13 km/h 1889 m -18.9 m/s Santo Domingo (CL) 403.000 MHz Lampa (CL) 0.00 km UNKNOWN
W0910409 RS41 2024-07-17 01:10:09 40.5707 -80.0295 143 ° 19 km/h 16224 m -7.7 m/s Pittsburgh [PA] (US) 401.500 MHz Allison Park [PA] (US) 0.00 km UNKNOWN
W1740388 RS41 2024-07-17 01:10:06 33.0216 -117.565 29 ° 20 km/h 3196 m -15.0 m/s San Diego [CA] (US) 400.650 MHz Encinitas [CA] (US) 0.00 km LOST
V3831103 RS41-SG 2024-07-17 01:10:00 -42.2793 148.465 109 ° 54 km/h 17568 m -24.1 m/s Hobart (AU) 401.50 MHz Sorell (AU) 0.00 km LOST
V3840415 RS41-SG 2024-07-17 01:08:38 -28.1584 155.259 114 ° 93 km/h 5365 m -7.8 m/s Brisbane (AU) 401.500 MHz 0.00 km LOST
U4315006 RS41 2024-07-17 01:08:30 40.4355 22.9621 130 ° 2 km/h 240 m -9.0 m/s Thessaloniki (GR) 403.001 MHz Epanomí (GR) 0.00 km UNKNOWN
W1731864 RS41 2024-07-17 01:07:49 42.8384 -82.8278 88 ° 148 km/h 10168 m -22.4 m/s Waterford [MI] (US) 403.978 MHz New Baltimore [MI] (US) 0.00 km UNKNOWN
D24001602 DFM17 2024-07-17 01:04:31 48.2789 -92.8415 185 ° 11 km/h 18381 m -20.6 m/s International Falls [MN] (US) 403.212 MHz Virginia [MN] (US) 0.00 km UNKNOWN
V2850229 RS41 2024-07-17 01:04:02 39.3407 9.35976 45 ° 4 km/h 782 m -12.4 m/s Decimomannu (IT) 403.50 MHz Maracalagonis (IT) 0.00 km UNKNOWN
W1510337 RS41 2024-07-17 01:03:39 46.5552 20.0358 283 ° 28 km/h 276 m -15.1 m/s Szeged (HU) 402.30 MHz Kistelek (HU) 0.00 km UNKNOWN
W1430079 RS41 2024-07-17 01:03:04 44.833 12.0728 6 ° 13 km/h 81 m -12.1 m/s San Pietro Capofiume (IT) 404.60 MHz Codigoro (IT) 0.00 km UNKNOWN
V4310118 RS41 2024-07-17 01:01:31 50.4812 14.8475 109 ° 33 km/h 938 m -17.2 m/s Praha (CZ) 401.10 MHz Bakov nad Jizerou (CZ) 0.00 km FOUND
V3440494 RS41 2024-07-17 01:01:30 -25.5569 -48.1904 98 ° 176 km/h 10336 m -11.4 m/s Curitiba (BR) 403.000 MHz Paranaguá (BR) 0.00 km LOST
W0931225 RS41 2024-07-17 01:00:49 32.172 -111.568 271 ° 48 km/h 23248 m -16.7 m/s Tucson [AZ] (US) 405.200 MHz Tucson Estates [AZ] (US) 0.00 km UNKNOWN
V3750816 RS41 2024-07-17 01:00:22 48.6814 12.1855 156 ° 26 km/h 746 m -14.8 m/s München (DE) 402.30 MHz Landshut (DE) 0.00 km UNKNOWN
ME3722890 M10 2024-07-17 01:00:12 41.4642 3.32396 87 ° 48 km/h 3249 m -6.9 m/s Barcelona (ES) 403.998 MHz San Felíu de Guixols (ES) 0.00 km LOST
V3720844 RS41 2024-07-17 00:58:45 -19.8379 -43.2458 128 ° 28 km/h 2729 m -6.4 m/s Confins (BR) 403.999 MHz Itabira (BR) 0.00 km UNKNOWN
V3840550 RS41-SG 2024-07-17 00:56:35 -37.5086 145.359 354 ° 7 km/h 597 m -8.8 m/s Melbourne (AU) 400.500 MHz Yarra Glen (AU) 0.00 km FOUND
MEAA01988 M20 2024-07-17 00:55:15 64.1446 9.46283 342 ° 24 km/h 2117 m -12.1 m/s Ørland (NO) 401.004 MHz Roan (NO) 0.00 km LOST
V0940090 RS41 2024-07-17 00:54:08 -36.7659 176.484 104 ° 219 km/h 12282 m -28.6 m/s Whenuapai (NZ) 403.001 MHz Hahei (NZ) 0.00 km LOST
D23072858 DFM17 2024-07-17 00:51:21 40.8179 -111.587 108 ° 4 km/h 3658 m -8.3 m/s Salt Lake City [UT] (US) 405.010 MHz Park City [UT] (US) 0.00 km UNKNOWN
MTS9BA548 MTS01 2024-07-17 00:49:53 40.8925 29.1109 275 ° 46 km/h 22662 m -9999.0 m/s Istanbul (TR) 401.001 MHz Adalar (TR) 0.00 km LOST
V0830976 RS41 2024-07-17 00:49:41 -32.9233 152.641 71 ° 35 km/h 4908 m -10.4 m/s Williamtown (AU) 402.50 MHz Nelson Bay (AU) 0.00 km LOST
V0620636 RS41 2024-07-17 00:49:22 56.5459 3.26196 16 ° 24 km/h 16207 m -37.8 m/s Ekofisk (NO) 403.00 MHz 0.00 km LOST
D23077568 DFM 2024-07-17 00:48:34 39.9025 -119.89 268 ° 80 km/h 33175 m -73.2 m/s Reno [NV] (US) 404.811 MHz Spanish Springs [NV] (US) 0.00 km UNKNOWN
D23073813 DFM 2024-07-17 00:47:13 36.3187 -86.8263 250 ° 69 km/h 25603 m -26.7 m/s Nashville [TN] (US) MHz Goodlettsville [TN] (US) 0.00 km UNKNOWN
V4230792 RS41-SGP 2024-07-17 00:45:05 33.8182 35.4908 8 ° 2 km/h 187 m 2.8 m/s Beit Dagan (IL) 405.300 MHz Ma‘alot Tarshīḥā (IL) 0.00 km UNKNOWN
V3230165 RS41 2024-07-17 00:42:17 24.9002 121.003 264 ° 44 km/h 12986 m -6.3 m/s New Taipei (TW) 400.30 MHz Zhubei (TW) 0.00 km UNKNOWN
W0514490 RS41 2024-07-17 00:30:25 45.044 33.9765 270 ° 100 km/h 5752 m -0.1 m/s Bucarest (RO) 403.920 MHz Aeroflotskyi (UA) 0.00 km LOST
W0920556 RS41 2024-07-17 00:12:50 35.1018 -97.3994 278 ° 57 km/h 22639 m 6.1 m/s Norman [OK] (US) 404.201 MHz Norman [OK] (US) 0.00 km UNKNOWN
V2330473 RS41 2024-07-16 23:55:51 44.6674 -63.0249 71 ° 46 km/h 13016 m 6.3 m/s Shearwater [NS] (CA) 402.501 MHz 0.00 km LOST
V0650107 RS41 2024-07-16 23:50:34 -41.081 175.917 226 ° 6 km/h 652 m -14.3 m/s Paraparaumu (NZ) 400.501 MHz Masterton (NZ) 0.00 km UNKNOWN
D23077225 DFM09 2024-07-16 23:46:11 30.2176 -93.0832 311 ° 13 km/h 13995 m 4.7 m/s Lake Charles [LA] (US) 404.410 MHz Lake Charles [LA] (US) 0.00 km UNKNOWN
V4840781 RS41 2024-07-16 22:51:04 32.9461 -114.346 76 ° 20 km/h 10318 m -15.9 m/s Yuma [AZ] (US) 401.200 MHz Fortuna Foothills [AZ] (US) 0.00 km UNKNOWN
W1856177 RS41 2024-07-16 22:27:02 35.4306 -120.648 45 ° 13 km/h 1194 m -1.7 m/s Santa Maria [CA] (US) 400.501 MHz Atascadero [CA] (US) 0.00 km UNKNOWN
V2450279 RS41 2024-07-16 21:30:26 -33.8905 152.207 33 ° 67 km/h 1321 m -4.9 m/s Sydney (AU) 401.50 MHz Bay View (AU) 0.00 km LOST
W1856170 RS41-SG 2024-07-16 21:13:01 35.4313 -120.701 79 ° 20 km/h 1027 m -2.6 m/s Santa Maria [CA] (US) 401.801 MHz Atascadero [CA] (US) 0.00 km UNKNOWN
W1810548 RS41-SG 2024-07-16 20:47:38 35.2034 -120.762 11 ° 69 km/h 4137 m -4.4 m/s Santa Maria [CA] (US) 405.801 MHz San Luis Obispo [CA] (US) 0.00 km UNKNOWN
V4820825 RS41 2024-07-16 20:39:01 32.9216 -114.357 255 ° 26 km/h 17458 m -18.8 m/s Yuma [AZ] (US) 401.200 MHz Fortuna Foothills [AZ] (US) 0.00 km UNKNOWN
W1810547 RS41 2024-07-16 20:19:25 35.0596 -120.874 311 ° 31 km/h 16601 m -7.6 m/s Santa Maria [CA] (US) 405.501 MHz Grover Beach [CA] (US) 0.00 km LOST
W0130310 RS41 2024-07-16 20:15:24 39.163 -95.5042 218 ° 13 km/h 413 m -6.1 m/s Topeka [KS] (US) 404.000 MHz Topeka [KS] (US) 0.00 km UNKNOWN
W1761096 RS41 2024-07-16 20:08:10 32.3765 -106.537 303 ° 11 km/h 2527 m -14.8 m/s Santa Teresa [NM] (US) 403.500 MHz Las Cruces [NM] (US) 0.00 km UNKNOWN
W1856173 RS41-SG 2024-07-16 19:50:41 35.2118 -120.723 15 ° 24 km/h 3865 m -4.4 m/s Santa Maria [CA] (US) 403.501 MHz San Luis Obispo [CA] (US) 0.00 km UNKNOWN
MEB101887 M20 2024-07-16 19:45:32 50.5134 20.9385 22 ° 6 km/h 672 m -12.7 m/s Tarnów (PL) 405.800 MHz Stopnica (PL) 0.00 km FOUND
LMS6D039A LMS6 2024-07-16 19:36:58 35.0324 -120.815 280 ° 137 km/h 29150 m -24.4 m/s Santa Maria [CA] (US) 404.387 MHz Grover Beach [CA] (US) 0.00 km LOST
V4630832 RS41 2024-07-16 19:28:59 33.2988 126.658 49 ° 41 km/h 841 m -9.3 m/s 403.302 MHz 0.00 km UNKNOWN
W1810549 RS41 2024-07-16 19:28:25 35.0977 -120.863 29 ° 9 km/h 4720 m -12.6 m/s Santa Maria [CA] (US) 403.201 MHz Grover Beach [CA] (US) 0.00 km LOST
V3657911 RS41-SGP 2024-07-16 19:24:52 53.3291 14.6083 114 ° 28 km/h 653 m -4.9 m/s Lindenberg (DE) 405.10 MHz Przecław (PL) 0.00 km FOUND
ME2B228BE M10 2024-07-16 19:19:45 43.4126 21.6314 320 ° 11 km/h 2580 m -12.2 m/s Niš (RS) 402.400 MHz Aleksinac (RS) 0.00 km UNKNOWN
MEB100850 M20 2024-07-16 19:15:30 55.3874 17.5024 359 ° 117 km/h 9668 m -17.4 m/s Łeba (PL) 403.604 MHz Łeba (PL) 0.00 km LOST
LMS6D0230 LMS6 2024-07-16 19:12:42 35.0537 -120.786 272 ° 98 km/h 28982 m -38.2 m/s Santa Maria [CA] (US) 404.765 MHz Grover Beach [CA] (US) 0.00 km LOST
W0320177 RS41-SG 2024-07-16 19:12:08 32.371 -106.584 92 ° 9 km/h 2082 m -13.8 m/s Santa Teresa [NM] (US) 404.000 MHz Las Cruces [NM] (US) 0.00 km UNKNOWN
ME3122044 M10 2024-07-16 19:08:47 44.9922 20.3066 303 ° 33 km/h 607 m -14.2 m/s Belgrade (RS) 402.800 MHz Batajnica (RS) 0.00 km UNKNOWN
ME2B2284A M10 2024-07-16 19:08:40 44.3771 22.2096 309 ° 31 km/h 1096 m -14.7 m/s 404.200 MHz Majdanpek (RS) 0.00 km UNKNOWN
V4540566 RS41 2024-07-16 19:06:58 52.8381 21.4096 359 ° 46 km/h 296 m -8.0 m/s Legionowo (PL) 404.499 MHz Różan (PL) 0.00 km UNKNOWN
ME2B22389 M10 2024-07-16 18:58:03 43.3811 19.7926 91 ° 20 km/h 13084 m -21.0 m/s Sjenica (RS) 403.200 MHz Nova Varoš (RS) 0.00 km UNKNOWN
T3560515 RS41 2024-07-16 18:55:55 -33.1412 -69.9008 58 ° 67 km/h 6165 m -13.6 m/s Santiago (CL) 403.000 MHz Lo Barnechea (CL) 0.00 km UNKNOWN
V1050329 RS41 2024-07-16 18:53:40 50.0163 8.2061 81 ° 15 km/h 195 m -7.2 m/s Idar-Oberstein (DE) 402.700 MHz Mainz (DE) 0.00 km UNKNOWN
V1911471 RS41 2024-07-16 18:48:27 38.8895 -77.0973 106 ° 44 km/h 3198 m -3.5 m/s Washington [VA] (US) 400.500 MHz Arlington [VA] (US) 0.00 km UNKNOWN
V4841165 RS41-SG 2024-07-16 18:43:30 32.9146 -114.359 11 ° 11 km/h 15894 m -25.0 m/s Yuma [AZ] (US) 401.200 MHz Fortuna Foothills [AZ] (US) 0.00 km UNKNOWN
N3550255 RS41 2024-07-16 18:37:57 33.6526 -0.12117 90 ° 56 km/h 13042 m -25.9 m/s 405.299 MHz 0.00 km UNKNOWN
LMS6D0526 LMS6 2024-07-16 18:34:51 35.0097 -120.815 266 ° 81 km/h 28515 m -42.9 m/s Santa Maria [CA] (US) 405.138 MHz Grover Beach [CA] (US) 0.00 km LOST
U1230433 RS41 2024-07-16 18:03:36 48.5943 12.3217 151 ° 33 km/h 845 m -4.3 m/s Altenstadt (DE) 402.50 MHz Landshut (DE) 0.00 km UNKNOWN
LMS6D04D0 LMS6 2024-07-16 17:58:37 35.0137 -120.858 275 ° 96 km/h 29250 m -25.7 m/s Santa Maria [CA] (US) 405.515 MHz Grover Beach [CA] (US) 0.00 km LOST
W1761021 RS41-SG 2024-07-16 17:58:20 35.1389 -120.801 4 ° 46 km/h 4164 m -6.8 m/s Santa Maria [CA] (US) 400.201 MHz Grover Beach [CA] (US) 0.00 km LOST
W1761104 RS41 2024-07-16 17:47:14 32.4108 -107 2 ° 6 km/h 1608 m -13.1 m/s Santa Teresa [NM] (US) 404.000 MHz Las Cruces [NM] (US) 0.00 km UNKNOWN
W0931123 RS41 2024-07-16 17:33:42 52.9573 -0.30919 119 ° 37 km/h 580 m -3.3 m/s Watnall (GB) 404.201 MHz Sleaford (GB) 0.00 km UNKNOWN
LMS6D0455 LMS6 2024-07-16 17:31:11 35.0207 -120.889 271 ° 87 km/h 32593 m -62.8 m/s Santa Maria [CA] (US) 405.887 MHz Grover Beach [CA] (US) 0.00 km LOST
W1610495 RS41-SG 2024-07-16 17:18:24 28.5778 -81.1525 43 ° 35 km/h 25 m -14.0 m/s Cape Canaveral [FL] (US) 401.001 MHz Alafaya [FL] (US) 0.00 km UNKNOWN
W1810163 RS41-SG 2024-07-16 16:19:44 32.359 -107.019 8 ° 7 km/h 1460 m -11.6 m/s Santa Teresa [NM] (US) 403.000 MHz Las Cruces [NM] (US) 0.00 km UNKNOWN
D24005470 DFM17 2024-07-16 15:06:11 39.9638 -88.3417 43 ° 41 km/h 259 m -2.2 m/s Lincoln [IL] (US) 405.010 MHz Champaign [IL] (US) 0.00 km UNKNOWN
D23077924 DFM09 2024-07-16 14:53:27 37.2385 -80.442 83 ° 22 km/h 1562 m -2.6 m/s Blacksburg [VA] (US) 404.011 MHz Blacksburg [VA] (US) 0.00 km FOUND
MEB003286 M20 2024-07-16 14:50:45 37.4975 23.2914 208 ° 28 km/h 832 m -10.3 m/s Athens (GR) 405.202 MHz Ermióni (GR) 0.00 km UNKNOWN
V4850879 RS41 2024-07-16 14:43:51 32.8692 -114.323 108 ° 20 km/h 14002 m -20.4 m/s Yuma [AZ] (US) 401.199 MHz Fortuna Foothills [AZ] (US) 0.00 km UNKNOWN
V2940840 RS41 2024-07-16 14:37:43 24.0037 52.7914 248 ° 57 km/h 8717 m -17.1 m/s Abu Dhabi (AE) 405.300 MHz 0.00 km UNKNOWN
D21067197 DFM 2024-07-16 14:32:58 50.6217 12.3871 47 ° 28 km/h 529 m -4.1 m/s Nuremberg (DE) 405.311 MHz Reichenbach (DE) 0.00 km FOUND
T4141213 RS41 2024-07-16 14:30:33 -40.6886 -70.6671 16 ° 28 km/h 1863 m -13.1 m/s Puerto Montt (CL) 403.000 MHz Pilcaniyeu (AR) 0.00 km UNKNOWN
W1927022 RS41 2024-07-16 14:30:12 52.4322 7.76385 60 ° 30 km/h 99 m -4.2 m/s Essen (DE) 404.10 MHz Bramsche (DE) 0.00 km UNKNOWN
D23073063 DFM17 2024-07-16 14:23:43 34.8517 -77.178 64 ° 43 km/h 5979 m -2.1 m/s Newport [NC] (US) 400.811 MHz Piney Green [NC] (US) 0.00 km UNKNOWN
V4110263 RS41-SGP 2024-07-16 14:22:30 40.68 -2.4639 59 ° 57 km/h 4009 m -3.2 m/s Madrid (ES) 403.000 MHz Guadalajara (ES) 0.00 km UNKNOWN
MEAF00373 M20 2024-07-16 14:21:17 48.9464 16.4577 117 ° 19 km/h 340 m -9.0 m/s Vienna (AT) 403.500 MHz Pohořelice (CZ) 0.00 km UNKNOWN
W0354001 RS41 2024-07-16 14:16:56 50.8928 1.21435 61 ° 56 km/h 70 m -3.9 m/s Herstmonceux (GB) 405.800 MHz Folkestone (GB) 0.00 km LOST
ME372289A M10 2024-07-16 14:16:42 41.8258 3.11914 83 ° 59 km/h 6682 m -18.3 m/s Barcelona (ES) 403.999 MHz San Felíu de Guixols (ES) 0.00 km LOST
IMS2F55F6 IMS100 2024-07-16 14:13:43 1.18001 103.665 329 ° 30 km/h 196 m -9999.0 m/s Singapore (SG) 401.963 MHz 0.00 km LOST
D21066376 DFM 2024-07-16 14:12:36 50.4643 12.2382 55 ° 30 km/h 1125 m -4.7 m/s Nuremberg (DE) 405.670 MHz Plauen (DE) 0.00 km NEED ATTENTION
V0720083 RS41 2024-07-16 14:11:55 -34.2976 -57.791 206 ° 44 km/h 468 m -9.9 m/s Ezeiza (AR) 403.500 MHz Colonia del Sacramento (UY) 0.00 km UNKNOWN
V1621395 RS41 2024-07-16 14:11:12 38.3692 -76.1477 75 ° 20 km/h 12900 m 9.1 m/s Dahlgren [VA] (US) 405.300 MHz Cambridge [MD] (US) 0.00 km UNKNOWN
D23075782 DFM09 2024-07-16 14:10:29 31.5991 -107.687 159 ° 20 km/h 2472 m -2.8 m/s Santa Teresa [NM] (US) 401.410 MHz Deming [NM] (US) 0.00 km UNKNOWN
W0130736 RS41-NG 2024-07-16 14:05:33 39.0118 -95.8317 347 ° 6 km/h 325 m -5.5 m/s Topeka [KS] (US) 404.001 MHz Topeka [KS] (US) 0.00 km UNKNOWN
T3130913 RS41 2024-07-16 13:58:37 -45.3623 -64.5914 4 ° 20 km/h 3252 m -11.2 m/s Comodoro Rivadavia (AR) 404.670 MHz 0.00 km LOST
V4510911 RS41 2024-07-16 13:58:33 52.9738 21.3226 329 ° 33 km/h 177 m -8.3 m/s Legionowo (PL) 404.410 MHz Różan (PL) 0.00 km FOUND
D23072805 DFM17 2024-07-16 13:58:26 40.7773 -111.875 192 ° 4 km/h 1521 m -6.0 m/s Salt Lake City [UT] (US) 405.010 MHz Salt Lake City [UT] (US) 0.00 km UNKNOWN
V5020947 RS41 2024-07-16 13:58:21 50.2749 -4.57244 109 ° 30 km/h 208 m -12.6 m/s Camborne (GB) 405.70 MHz Looe (GB) 0.00 km LOST
V4550047 RS41 2024-07-16 13:58:00 60.9884 24.9828 61 ° 15 km/h 251 m -16.0 m/s Jokioinen (FI) 403.000 MHz Hämeenkoski (FI) 0.00 km UNKNOWN
V2841483 RS41 2024-07-16 13:57:59 40.182 17.9969 189 ° 24 km/h 100 m -5.8 m/s Galatina (IT) 403.50 MHz Nardò (IT) 0.00 km FOUND
D23073276 DFM17 2024-07-16 13:55:01 41.0538 -115.878 59 ° 24 km/h 7260 m -8.2 m/s Elko [NV] (US) 403.210 MHz Elko [NV] (US) 0.00 km UNKNOWN
D23073122 DFM17 2024-07-16 13:54:58 47.7561 -117.709 220 ° 9 km/h 2900 m -7.6 m/s Spokane [WA] (US) 403.212 MHz Spokane [WA] (US) 0.00 km UNKNOWN
V3520902 RS41 2024-07-16 13:53:54 -23.045 -41.8202 348 ° 2 km/h 979 m -3.1 m/s Galeão (BR) 405.301 MHz Cabo Frio (BR) 0.00 km LOST
MEA703823 M20 2024-07-16 13:53:23 48.5499 -3.56538 125 ° 24 km/h 725 m -3.2 m/s Guipavas (FR) 404.000 MHz Plouigneau (FR) 0.00 km FOUND
D23074097 DFM17 2024-07-16 13:50:44 46.1266 -99.0457 146 ° 31 km/h 2331 m -7.2 m/s Bismarck [ND] (US) 403.811 MHz Aberdeen [SD] (US) 0.00 km UNKNOWN
D23077891 DFM17 2024-07-16 13:50:32 35.2686 -112.333 20 ° 30 km/h 7560 m -4.6 m/s Flagstaff [AZ] (US) 404.810 MHz Chino Valley [AZ] (US) 0.00 km UNKNOWN
D24000035 DFM09 2024-07-16 13:49:37 44.994 -97.1193 112 ° 76 km/h 4754 m -3.4 m/s Aberdeen [SD] (US) 405.211 MHz Watertown [SD] (US) 0.00 km UNKNOWN
V4140086 RS41 2024-07-16 13:48:00 37.5458 -6.29122 13 ° 11 km/h 504 m -7.0 m/s Huelva (ES) 402.501 MHz Aznalcóllar (ES) 0.00 km UNKNOWN
V3750661 RS41 2024-07-16 13:47:55 55.7981 9.19886 47 ° 43 km/h 711 m -1.7 m/s Schleswig (DE) 402.50 MHz Billund (DK) 0.00 km UNKNOWN
D23076340 DFM 2024-07-16 13:47:32 36.1286 -79.9388 116 ° 17 km/h 415 m -4.7 m/s Greensboro [NC] (US) 403.410 MHz Summerfield [NC] (US) 0.00 km UNKNOWN
D23072632 DFM17 2024-07-16 13:45:52 41.1973 -95.9737 198 ° 30 km/h 1031 m -7.9 m/s Valley [NE] (US) 403.210 MHz Bellevue [NE] (US) 0.00 km UNKNOWN
V2910197 RS41 2024-07-16 13:45:32 46.0625 9.38978 14 ° 13 km/h 1709 m -3.6 m/s Cameri (IT) 404.90 MHz Colico (IT) 0.00 km UNKNOWN
V2411349 RS41 2024-07-16 13:45:12 49.266 12.6625 24 ° 11 km/h 1017 m -3.0 m/s München (DE) 402.30 MHz Domažlice (CZ) 0.00 km UNKNOWN
V3230384 RS41 2024-07-16 13:43:50 67.5984 25.9297 310 ° 24 km/h 7043 m -12.6 m/s Sodankyla (FI) 404.000 MHz Sodankylä (FI) 0.00 km UNKNOWN
V1210758 RS41-SG 2024-07-16 13:43:10 79.7797 -87.1257 231 ° 2 km/h 166 m -11.1 m/s Eureka [NU] (CA) 405.000 MHz 0.00 km UNKNOWN
D23065582 DFM17 2024-07-16 13:41:20 37.1285 -93.895 44 ° 39 km/h 4683 m -4.8 m/s Springfield [MO] (US) 400.400 MHz Carthage [MO] (US) 0.00 km UNKNOWN
V2940398 RS41 2024-07-16 13:40:02 55.347 13.6341 284 ° 30 km/h 255 m -3.6 m/s Greifswald (DE) 402.30 MHz Ystad (SE) 0.00 km LOST
D23074257 DFM 2024-07-16 13:39:51 33.4058 -85.0624 59 ° 15 km/h 11121 m -5.9 m/s Peachtree City [GA] (US) MHz Carrollton [GA] (US) 0.00 km UNKNOWN
MEB101881 M20 2024-07-16 13:38:44 51.8478 16.9903 87 ° 33 km/h 582 m -11.0 m/s Wrocław (PL) 403.000 MHz Gostyń (PL) 0.00 km UNKNOWN
V2850389 RS41 2024-07-16 13:37:44 46.539 13.3823 75 ° 4 km/h 2066 m -5.9 m/s Udine-Rivolto (IT) 404.00 MHz Hermagor (AT) 0.00 km UNKNOWN
MEA800895 M20 2024-07-16 13:37:02 44.1608 5.53521 95 ° 17 km/h 2627 m -4.2 m/s Nîmes (FR) 405.001 MHz Forcalquier (FR) 0.00 km UNKNOWN
V2911422 RS41-SG 2024-07-16 13:36:39 41.7787 12.5879 46 ° 20 km/h 535 m -7.5 m/s Pratica di Mare (IT) 405.800 MHz Ciampino (IT) 0.00 km UNKNOWN
V0640231 RS41 2024-07-16 13:36:12 -30.9956 -63.3833 188 ° 35 km/h 1308 m -13.3 m/s Córdoba (AR) 402.001 MHz Santa Rosa de Río Primero (AR) 0.00 km UNKNOWN
ME342270D M10 2024-07-16 13:35:44 42.1232 9.10375 100 ° 44 km/h 3270 m -6.6 m/s Ajaccio (FR) 400.972 MHz Corte (FR) 0.00 km UNKNOWN
V3934190 RS41 2024-07-16 13:35:31 -23.8254 -45.3088 224 ° 20 km/h 1335 m -4.8 m/s São Paulo (BR) 405.300 MHz Caraguatatuba (BR) 0.00 km UNKNOWN
D23077312 DFM17 2024-07-16 13:35:28 44.4618 -87.2829 92 ° 135 km/h 14734 m -7.4 m/s Green Bay [WI] (US) 403.210 MHz Two Rivers [WI] (US) 0.00 km UNKNOWN
D23077335 DFM09 2024-07-16 13:34:20 30.2117 -93.8707 34 ° 19 km/h 2743 m -9.4 m/s Lake Charles [LA] (US) 404.410 MHz Orange [TX] (US) 0.00 km UNKNOWN
V3111370 RS41 2024-07-16 13:31:56 59.6218 5.38965 320 ° 39 km/h 1632 m -10.7 m/s Stavanger (NO) 403.000 MHz Sveio (NO) 0.00 km UNKNOWN
T3210822 RS41 2024-07-16 13:31:46 42.1979 12.5297 356 ° 17 km/h 317 m -4.7 m/s Bracciano (IT) 405.500 MHz Rignano Flaminio (IT) 0.00 km FOUND
ME34224C4 M10 2024-07-16 13:31:27 48.966 2.9031 95 ° 87 km/h 5186 m -13.0 m/s Trappes (FR) 401.000 MHz Meaux (FR) 0.00 km UNKNOWN
U3524359 RS41-SG 2024-07-16 13:30:50 47.4391 8.00733 115 ° 20 km/h 816 m -3.8 m/s Payerne (CH) 403.501 MHz Küttigen (CH) 0.00 km UNKNOWN
V4530392 RS41 2024-07-16 13:30:40 33.2798 126.397 22 ° 41 km/h 1488 m -5.9 m/s 403.302 MHz 0.00 km UNKNOWN
U3654239 RS41 2024-07-16 13:29:52 44.357 15.5112 118 ° 6 km/h 2099 m -14.1 m/s Zadar (HR) 401.000 MHz Starigrad (HR) 0.00 km UNKNOWN
D23066694 DFM 2024-07-16 13:28:50 32.9969 -80.6846 62 ° 24 km/h 2283 m -9.3 m/s Charleston [SC] (US) MHz Summerville [SC] (US) 0.00 km UNKNOWN
V3150318 RS41 2024-07-16 13:28:45 52.0797 -9.81184 97 ° 35 km/h 3692 m -10.4 m/s Cahersiveen (IE) 405.301 MHz Killarney (IE) 0.00 km UNKNOWN
MEB101889 M20 2024-07-16 13:25:39 50.4538 20.8424 40 ° 80 km/h 12426 m -19.0 m/s Tarnów (PL) 405.800 MHz Stopnica (PL) 0.00 km UNKNOWN
ME352230A M10 2024-07-16 13:25:34 38.301 -0.33594 249 ° 35 km/h 30 m -6.6 m/s Murcia (ES) 403.401 MHz Alicante (ES) 0.00 km LOST
W0930887 RS41 2024-07-16 13:25:22 32.6125 -98.1889 240 ° 24 km/h 5826 m -9.1 m/s Fort Worth [TX] (US) 404.800 MHz Mineral Wells [TX] (US) 0.00 km UNKNOWN
W1510280 RS41-SG 2024-07-16 13:25:21 35.0559 -120.738 14 ° 11 km/h 4797 m -5.3 m/s Santa Maria [CA] (US) 400.251 MHz Grover Beach [CA] (US) 0.00 km LOST
V4330799 RS41 2024-07-16 13:24:20 42.6467 23.0989 297 ° 26 km/h 1128 m -15.7 m/s Sofia (BG) 405.300 MHz Divotino (BG) 0.00 km UNKNOWN
U4244725 RS41 2024-07-16 13:24:17 45.0967 8.67506 229 ° 2 km/h 197 m -2.8 m/s Cuneo-Levaldigi (IT) 403.701 MHz Valenza (IT) 0.00 km UNKNOWN
V2441399 RS41 2024-07-16 13:23:18 -37.4258 145.279 112 ° 4 km/h 337 m -6.5 m/s Melbourne (AU) 401.500 MHz Whittlesea (AU) 0.00 km UNKNOWN
ME9B00699 M20 2024-07-16 13:23:15 44.9739 0.11444 80 ° 15 km/h 624 m -6.2 m/s Bordeaux (FR) 402.802 MHz Montpon-Ménestérol (FR) 0.00 km UNKNOWN
V2850230 RS41 2024-07-16 13:23:06 39.3157 9.52635 13 ° 6 km/h 169 m -2.8 m/s Decimomannu (IT) 403.500 MHz Maracalagonis (IT) 0.00 km UNKNOWN
D24000529 DFM09 2024-07-16 13:22:01 30.502 -82.3806 102 ° 17 km/h 1416 m -11.4 m/s Jacksonville [FL] (US) 403.211 MHz Macclenny [FL] (US) 0.00 km UNKNOWN
W1810364 RS41 2024-07-16 13:21:54 38.2249 -122.422 354 ° 35 km/h 1443 m -9.6 m/s Oakland [CA] (US) 404.002 MHz Sonoma [CA] (US) 0.00 km UNKNOWN
MEB100824 M20 2024-07-16 13:21:46 55.4119 17.7086 28 ° 52 km/h 6102 m -11.6 m/s Łeba (PL) 403.603 MHz Łeba (PL) 0.00 km LOST
V4750740 RS41 2024-07-16 13:20:25 46.1558 16.2243 61 ° 13 km/h 960 m -14.8 m/s Zagreb (HR) 405.30 MHz Budinšćina (HR) 0.00 km FOUND
R1048132 RS41 2024-07-16 13:20:23 -33.4291 -70.3849 148 ° 24 km/h 3060 m -8.7 m/s Santo Domingo (CL) 403.000 MHz Lo Barnechea (CL) 0.00 km UNKNOWN
V1721012 RS41 2024-07-16 13:20:13 38.9078 -8.54273 134 ° 17 km/h 149 m -4.7 m/s Lisbon (PT) 403.020 MHz Coruche (PT) 0.00 km LOST
V3750621 RS41 2024-07-16 13:20:06 54.5974 6.95234 47 ° 57 km/h 628 m -4.8 m/s Norderney (DE) 404.10 MHz 0.00 km LOST
W0930625 RS41-NG 2024-07-16 13:19:48 25.7717 -81.2147 301 ° 22 km/h 5081 m -11.1 m/s Miami [FL] (US) 403.401 MHz Marco Island [FL] (US) 0.00 km UNKNOWN
V0940204 RS41-SG 2024-07-16 13:19:44 -36.6572 -63.1505 129 ° 87 km/h 6537 m -12.7 m/s Santa Rosa (AR) 405.281 MHz Salliqueló (AR) 0.00 km UNKNOWN
W1020799 RS41 2024-07-16 13:19:19 39.0588 -77.4885 73 ° 57 km/h 6973 m -8.0 m/s Washington [VA] (US) 403.000 MHz Lansdowne [VA] (US) 0.00 km UNKNOWN
W1810353 RS41 2024-07-16 13:18:12 45.1663 -123.128 199 ° 22 km/h 340 m -10.8 m/s Salem [OR] (US) 401.402 MHz McMinnville [OR] (US) 0.00 km FOUND
V3814344 RS41 2024-07-16 13:18:04 43.5476 -3.20991 75 ° 46 km/h 5589 m -11.7 m/s Santander (ES) 401.500 MHz Castro-Urdiales (ES) 0.00 km LOST
W0120445 RS41 2024-07-16 13:17:48 49.495 20.1438 34 ° 74 km/h 4270 m -8.2 m/s Poprad (SK) 400.602 MHz Nowy Targ (PL) 0.00 km UNKNOWN
W1634637 RS41 2024-07-16 13:16:54 47.8342 19.1076 109 ° 9 km/h 359 m -13.3 m/s Budapest (HU) 403.700 MHz Vác (HU) 0.00 km UNKNOWN
D23073282 DFM 2024-07-16 13:16:48 27.7494 -83.0759 16 ° 13 km/h 6738 m -9.0 m/s Tampa [FL] (US) 403.010 MHz Seminole [FL] (US) 0.00 km LOST
V4250345 RS41 2024-07-16 13:16:30 50.6786 14.6897 27 ° 15 km/h 557 m -10.0 m/s Praha (CZ) 404.200 MHz Mimoň (CZ) 0.00 km UNKNOWN
T4110051 RS41 2024-07-16 13:16:26 24.3754 53.4064 260 ° 50 km/h 7645 m -13.2 m/s Abu Dhabi (AE) 401.700 MHz 0.00 km LOST
U3231072 RS41 2024-07-16 13:16:02 53.7487 9.88737 84 ° 41 km/h 228 m -7.3 m/s Bergen (DE) 405.70 MHz Quickborn (DE) 0.00 km FOUND
ME2B228C0 M10 2024-07-16 13:15:33 43.4286 21.5391 298 ° 26 km/h 2669 m -13.0 m/s Niš (RS) 402.400 MHz Aleksinac (RS) 0.00 km UNKNOWN
D22013185 DFM17 2024-07-16 13:14:27 47.4947 5.03583 91 ° 24 km/h 562 m -2.4 m/s Bourges (FR) 404.711 MHz Fontaine-lès-Dijon (FR) 0.00 km UNKNOWN
W1950357 RS41 2024-07-16 13:14:08 51.639 11.0112 49 ° 37 km/h 709 m -3.6 m/s Meiningen (DE) 402.30 MHz Quedlinburg (DE) 0.00 km FOUND
U5125610 RS41 2024-07-16 13:13:19 -19.8221 -43.3289 244 ° 24 km/h 2222 m -9.6 m/s Confins (BR) 403.999 MHz Itabira (BR) 0.00 km UNKNOWN
V2920451 RS41 2024-07-16 13:12:39 37.7929 12.5071 147 ° 31 km/h 132 m -12.7 m/s Trapani-Birgi (IT) 404.500 MHz Marsala (IT) 0.00 km FOUND
S0910148 RS41 2024-07-16 13:12:00 58.0988 18.9742 31 ° 50 km/h 5194 m -19.1 m/s Visby (SE) 405.300 MHz Visby (SE) 0.00 km LOST
W1430076 RS41 2024-07-16 13:11:53 44.9394 12.217 268 ° 9 km/h 220 m -10.6 m/s San Pietro Capofiume (IT) 404.60 MHz Taglio di Po (IT) 0.00 km UNKNOWN
ME31220C9 M10 2024-07-16 13:11:35 45.0284 20.282 303 ° 26 km/h 592 m -14.8 m/s Belgrade (RS) 402.799 MHz Stara Pazova (RS) 0.00 km UNKNOWN
D23073563 DFM17 2024-07-16 13:11:34 46.9595 -67.5512 122 ° 146 km/h 12553 m -9.4 m/s Caribou [ME] (US) 403.611 MHz 0.00 km UNKNOWN
V4150364 RS41 2024-07-16 13:09:38 43.498 -7.56587 164 ° 7 km/h 1366 m -9.1 m/s A Coruña (ES) 404.000 MHz Vieiro (ES) 0.00 km UNKNOWN
W1120968 RS41 2024-07-16 13:09:27 10.6954 106.752 47 ° 30 km/h 164 m -7.1 m/s Ho Chi Minh (VN) 403.000 MHz 0.00 km UNKNOWN
V4540426 RS41 2024-07-16 13:09:24 52.9477 21.4269 297 ° 19 km/h 213 m -6.5 m/s Legionowo (PL) 404.499 MHz Różan (PL) 0.00 km UNKNOWN
D23073134 DFM17 2024-07-16 13:09:04 44.6065 -92.4195 195 ° 17 km/h 612 m -10.7 m/s Chanhassen [MN] (US) 403.610 MHz Red Wing [MN] (US) 0.00 km UNKNOWN
MTS9BA88F MTS01 2024-07-16 13:08:28 38.4996 26.7735 257 ° 120 km/h 33119 m -9999.0 m/s Izmir (TR) 401.498 MHz Mordoğan (TR) 0.00 km LOST
W1731803 RS41 2024-07-16 13:07:42 42.59 -83.0877 106 ° 126 km/h 13298 m -24.9 m/s Waterford [MI] (US) 403.979 MHz Sterling Heights [MI] (US) 0.00 km UNKNOWN
D24004231 DFM09 2024-07-16 13:07:24 40.866 -72.9122 247 ° 33 km/h 21506 m -16.7 m/s Upton [NY] (US) 405.410 MHz Middle Island [NY] (US) 0.00 km UNKNOWN
V3111464 RS41-SG 2024-07-16 13:07:03 33.4251 -111.971 70 ° 19 km/h 1120 m -16.5 m/s Phoenix [AZ] (US) 401.700 MHz Tempe [AZ] (US) 0.00 km UNKNOWN
V0521515 RS41 2024-07-16 13:06:34 56.8982 2.96322 351 ° 24 km/h 17508 m -49.2 m/s Ekofisk (NO) 403.00 MHz 0.00 km LOST
D24000124 DFM09 2024-07-16 13:06:06 41.4661 -90.0672 118 ° 26 km/h 1195 m -12.8 m/s Davenport [IA] (US) 403.411 MHz East Moline [IL] (US) 0.00 km UNKNOWN
W0931230 RS41-NG 2024-07-16 13:05:35 32.1465 -111.659 272 ° 63 km/h 24008 m -20.3 m/s Tucson [AZ] (US) 405.200 MHz Tucson Estates [AZ] (US) 0.00 km UNKNOWN
D23078053 DFM09 2024-07-16 13:02:45 42.6266 -73.6397 295 ° 119 km/h 34192 m 5.2 m/s Albany [NY] (US) 401.010 MHz Troy [NY] (US) 0.00 km UNKNOWN
V3631275 RS41 2024-07-16 13:01:50 53.0667 14.2394 27 ° 22 km/h 723 m -12.9 m/s Lindenberg (DE) 405.10 MHz Schwedt (DE) 0.00 km FOUND
W0910103 RS41-NG 2024-07-16 13:01:50 40.6069 -80.162 69 ° 41 km/h 16915 m -15.3 m/s Pittsburgh [PA] (US) 401.001 MHz Franklin Park [PA] (US) 0.00 km UNKNOWN
V1021173 RS41 2024-07-16 13:01:32 49.674 10.1513 80 ° 41 km/h 872 m -8.7 m/s Stuttgart (DE) 404.50 MHz Kitzingen (DE) 0.00 km FOUND
D23073802 DFM 2024-07-16 13:00:51 36.2216 -87.0889 292 ° 39 km/h 23011 m -12.7 m/s Nashville [TN] (US) MHz Nashville [TN] (US) 0.00 km UNKNOWN
V3742436 RS41 2024-07-16 13:00:43 -31.7857 117.566 91 ° 44 km/h 5119 m -7.1 m/s Perth (AU) 401.502 MHz Merredin (AU) 0.00 km UNKNOWN
V3850614 RS41-SG 2024-07-16 12:59:49 -27.9001 155.07 97 ° 65 km/h 3726 m -8.4 m/s Brisbane (AU) 401.500 MHz 0.00 km LOST
W0514491 RS41 2024-07-16 12:58:45 44.5087 25.9052 327 ° 28 km/h 160 m -7.1 m/s Bucarest (RO) 403.921 MHz Chitila (RO) 0.00 km FOUND
V3824265 RS41 2024-07-16 12:58:20 -34.724 139.161 58 ° 33 km/h 6688 m -8.5 m/s Adelaide (AU) 401.501 MHz Mannum (AU) 0.00 km UNKNOWN
U3260668 RS41 2024-07-16 12:58:02 50.1894 12.3401 62 ° 28 km/h 1589 m -13.9 m/s Kümmersbruck (DE) 402.700 MHz Františkovy Lázně (CZ) 0.00 km FOUND
MEAA02220 M20 2024-07-16 12:58:01 63.9828 9.2975 314 ° 28 km/h 2384 m -12.0 m/s Ørland (NO) 402.402 MHz Botngård (NO) 0.00 km LOST
W1456889 RS41 2024-07-16 12:55:21 -19.0367 -47.8046 129 ° 7 km/h 25008 m -34.7 m/s Uberlândia (BR) 403.001 MHz Uberlândia (BR) 0.00 km UNKNOWN
V1040224 RS41 2024-07-16 12:55:04 50.4574 8.22745 51 ° 31 km/h 468 m -4.2 m/s Idar-Oberstein (DE) 402.700 MHz Limburg an der Lahn (DE) 0.00 km UNKNOWN
W1510320 RS41 2024-07-16 12:54:59 46.5772 20.0523 20 ° 37 km/h 491 m -16.6 m/s Szeged (HU) 402.300 MHz Mindszent (HU) 0.00 km FOUND
T4820667 RS41 2024-07-16 12:53:47 49.945 17.3838 93 ° 28 km/h 1240 m -14.7 m/s Prostějov (CZ) 402.100 MHz Bruntál (CZ) 0.00 km UNKNOWN
W1740611 RS41 2024-07-16 12:52:51 32.9461 -117.53 35 ° 11 km/h 2730 m -13.5 m/s San Diego [CA] (US) 400.650 MHz Solana Beach [CA] (US) 0.00 km LOST
N1453007 RS92 2024-07-16 12:50:58 45.9668 -3.4333 84 ° 72 km/h 5591 m -30.0 m/s 402.701 MHz 0.00 km LOST
D23073572 DFM 2024-07-16 12:46:57 39.7782 -120.145 222 ° 19 km/h 18697 m -24.8 m/s Reno [NV] (US) 404.811 MHz Reno [NV] (US) 0.00 km UNKNOWN
V4440766 RS41-SGP 2024-07-16 12:43:20 25.5601 121.248 275 ° 19 km/h 8501 m -25.5 m/s New Taipei (TW) 401.31 MHz Taipei (TW) 0.00 km LOST
W1610493 RS41 2024-07-16 12:43:18 28.5211 -81.284 11 ° 24 km/h 204 m -6.9 m/s Cape Canaveral [FL] (US) 401.001 MHz Azalea Park [FL] (US) 0.00 km UNKNOWN
MTS9BA9E0 MTS01 2024-07-16 12:39:58 40.9649 29.0841 308 ° 59 km/h 20792 m -9999.0 m/s Istanbul (TR) 400.999 MHz Kartal (TR) 0.00 km UNKNOWN
U1240011 RS41 2024-07-16 12:36:04 48.7744 12.0924 49 ° 19 km/h 1070 m -2.5 m/s Altenstadt (DE) 402.50 MHz Landshut (DE) 0.00 km UNKNOWN
W0130591 RS41 2024-07-16 12:33:50 35.6167 33.5399 27 ° 109 km/h 13588 m -25.3 m/s Nicosia (CY) 403.000 MHz Kyrenia (CY) 0.00 km LOST
W0524158 RS41 2024-07-16 12:30:40 35.1122 -97.608 284 ° 89 km/h 25532 m 4.3 m/s Norman [OK] (US) 404.201 MHz Newcastle [OK] (US) 0.00 km LOST
V0620267 RS41 2024-07-16 12:26:27 -36.9315 176.246 133 ° 33 km/h 4173 m -10.0 m/s Whenuapai (NZ) 403.001 MHz Pauanui (NZ) 0.00 km LOST
U3250110 RS41 2024-07-16 12:26:05 53.7394 7.50823 31 ° 19 km/h 50 m -5.0 m/s Meppen (DE) 404.50 MHz Wittmund (DE) 0.00 km LOST
W1760792 RS41 2024-07-16 12:20:49 61.4562 -150.055 321 ° 22 km/h 17599 m 4.6 m/s Anchorage [AK] (US) 401.001 MHz Knik-Fairview [AK] (US) 0.00 km UNKNOWN
V4210244 RS41 2024-07-16 12:18:24 57.9988 33.438 163 ° 9 km/h 77 m -3.3 m/s Skriveri (LV) 403.201 MHz Valday (RU) 0.00 km UNKNOWN
W0950415 RS41 2024-07-16 12:12:48 50.9977 -0.73689 97 ° 39 km/h 1169 m -5.8 m/s Larkhill (GB) 404.403 MHz Liphook (GB) 0.00 km UNKNOWN
V0320627 RS41 2024-07-16 12:09:29 -27.8027 -48.1116 113 ° 241 km/h 10946 m 5.3 m/s Florianopolis (BR) 403.000 MHz Florianópolis (BR) 0.00 km LOST
D20068398 DFM09 2024-07-16 12:02:00 40.7198 -7.79549 124 ° 6 km/h 2820 m -5.4 m/s 402.011 MHz Sátão (PT) 0.00 km UNKNOWN
W1857325 RS41-SGP 2024-07-16 12:00:11 52.0099 7.62434 59 ° 15 km/h 108 m -6.6 m/s Essen (DE) 405.30 MHz Münster (DE) 0.00 km UNKNOWN
V0931770 RS41-SG 2024-07-16 11:56:53 -40.946 176.118 76 ° 20 km/h 541 m -13.9 m/s Paraparaumu (NZ) 400.501 MHz Masterton (NZ) 0.00 km UNKNOWN
V2330461 RS41-SG 2024-07-16 11:51:49 44.7242 -63.1354 87 ° 54 km/h 10763 m 6.1 m/s Shearwater [NS] (CA) 402.501 MHz 0.00 km UNKNOWN
MEB003344 M20 2024-07-16 11:12:30 44.2601 6.60114 71 ° 46 km/h 5103 m -15.3 m/s St. Michel l'Observatoire (FR) 403.200 MHz Digne-les-Bains (FR) 0.00 km UNKNOWN
D23030975 DFM 2024-07-16 10:26:24 48.6184 12.1301 59 ° 30 km/h 1783 m -2.6 m/s Altenstadt (DE) 402.011 MHz Landshut (DE) 0.00 km UNKNOWN
V2930638 RS41 2024-07-16 09:15:10 24.0611 53.2582 276 ° 43 km/h 5616 m -18.1 m/s Abu Dhabi (AE) 405.301 MHz 0.00 km UNKNOWN
U3270079 RS41 2024-07-16 08:44:50 53.5618 7.48911 156 ° 33 km/h 34 m -2.7 m/s Meppen (DE) 405.100 MHz Aurich (DE) 0.00 km FOUND
D22013905 DFM17 2024-07-16 08:17:51 47.6444 5.03538 71 ° 22 km/h 691 m -4.1 m/s Bourges (FR) 404.511 MHz Langres (FR) 0.00 km UNKNOWN
MEA402361 M20 2024-07-16 08:10:25 44.8829 0.0727894 87 ° 44 km/h 1571 m -11.4 m/s Bordeaux (FR) 403.400 MHz Montpon-Ménestérol (FR) 0.00 km UNKNOWN
V3640978 RS41 2024-07-16 08:00:17 53.321 14.3908 69 ° 7 km/h 724 m -2.9 m/s Lindenberg (DE) 405.100 MHz Przecław (PL) 0.00 km FOUND
V5110654 RS41 2024-07-16 07:53:26 56.8285 9.31222 324 ° 22 km/h 415 m -14.2 m/s Karup (DK) 405.300 MHz Aars (DK) 0.00 km FOUND
V3668264 RS41 2024-07-16 07:53:22 61.1037 24.161 310 ° 4 km/h 187 m -14.4 m/s Jokioinen (FI) 403.000 MHz Parola (FI) 0.00 km UNKNOWN
MEB101894 M20 2024-07-16 07:43:56 50.3357 20.8662 301 ° 11 km/h 582 m -11.9 m/s Tarnów (PL) 405.800 MHz Nowy Korczyn (PL) 0.00 km UNKNOWN
MEB101882 M20 2024-07-16 07:42:25 51.673 16.8466 5 ° 17 km/h 517 m -10.3 m/s Wrocław (PL) 403.799 MHz Rawicz (PL) 0.00 km UNKNOWN
W0950557 RS41 2024-07-16 07:32:47 55.1167 -2.13046 222 ° 13 km/h 1176 m -4.8 m/s Albemarle (GB) 405.100 MHz Hexham (GB) 0.00 km UNKNOWN
ME2B228C7 M10 2024-07-16 07:32:16 43.3556 21.4839 310 ° 28 km/h 2836 m -13.3 m/s Niš (RS) 402.400 MHz Prokuplje (RS) 0.00 km UNKNOWN
V2021175Z RS41 2024-07-16 07:30:05 50.5327 14.5403 71 ° 26 km/h 1440 m -14.0 m/s Praha (CZ) 401.10 MHz Doksy (CZ) 0.00 km UNKNOWN
V4740739 RS41 2024-07-16 07:28:31 54.0796 12.3392 260 ° 13 km/h 102 m -2.4 m/s Meiningen (DE) 404.70 MHz Rostock (DE) 0.00 km FOUND
W1010613 RS41 2024-07-16 07:27:27 50.8577 -1.17535 89 ° 39 km/h 1629 m -2.7 m/s Larkhill (GB) 404.403 MHz Fareham (GB) 0.00 km FOUND
V1050328 RS41 2024-07-16 07:20:29 50.6552 7.62852 42 ° 11 km/h 359 m -10.5 m/s Idar-Oberstein (DE) 402.700 MHz Windeck (DE) 0.00 km NEED ATTENTION
W0130619 RS41 2024-07-16 07:16:25 35.781 33.824 124 ° 22 km/h 2379 m -7.9 m/s Nicosia (CY) 403.000 MHz Taşucu (TR) 0.00 km LOST
ME2B223E3 M10 2024-07-16 07:12:25 44.267 22.1384 307 ° 44 km/h 2187 m -15.0 m/s 404.200 MHz Bor (RS) 0.00 km UNKNOWN
ME31220D7 M10 2024-07-16 07:11:09 44.9438 20.1922 331 ° 33 km/h 593 m -13.3 m/s Belgrade (RS) 402.799 MHz Stara Pazova (RS) 0.00 km UNKNOWN
V0411080 RS41 2024-07-16 07:11:00 40.1285 22.8875 291 ° 7 km/h 557 m -5.6 m/s Thessaloniki (GR) 403.001 MHz Néa Kallikráteia (GR) 0.00 km LOST
V4450700 RS41 2024-07-16 07:08:37 52.7093 21.232 325 ° 33 km/h 512 m -10.2 m/s Legionowo (PL) 404.499 MHz Pułtusk (PL) 0.00 km UNKNOWN
ME2B22386 M10 2024-07-16 06:59:28 43.3075 19.7418 79 ° 17 km/h 11939 m -20.4 m/s Sjenica (RS) 403.200 MHz Nova Varoš (RS) 0.00 km UNKNOWN
D21017825 DFM 2024-07-16 06:42:42 49.0258 17.6191 350 ° 26 km/h 587 m -17.1 m/s Záhorie (SK) 403.630 MHz Uherský Brod (CZ) 0.00 km UNKNOWN
U3270056 RS41 2024-07-16 05:50:40 53.6383 7.64375 9 ° 22 km/h 53 m -6.0 m/s Meppen (DE) 404.50 MHz Wittmund (DE) 0.00 km FOUND
U1230699 RS41 2024-07-16 05:20:51 48.4629 11.6651 103 ° 41 km/h 1001 m -10.6 m/s Altenstadt (DE) 402.50 MHz Freising (DE) 0.00 km FOUND
V1914062 RS41 2024-07-16 05:18:55 48.0774 12.1661 54 ° 11 km/h 554 m -3.0 m/s Innsbruck (AT) 404.10 MHz Waldkraiburg (DE) 0.00 km UNKNOWN
MEB004834 M20 2024-07-16 05:02:16 46.1108 14.6382 73 ° 39 km/h 9981 m -1.2 m/s Ljubljana (SI) 403.005 MHz Dol (SI) 0.00 km UNKNOWN
V3840548 RS41 2024-07-16 05:00:58 -37.4997 145.217 18 ° 35 km/h 521 m -11.2 m/s Melbourne (AU) 400.500 MHz Whittlesea (AU) 0.00 km UNKNOWN
D24008352 DFM09 2024-07-16 04:47:51 43.1199 -84.9152 72 ° 43 km/h 17990 m 1.3 m/s 402.030 MHz Ionia [MI] (US) 0.00 km UNKNOWN
V0820700 RS41 2024-07-16 04:44:35 30.9328 35.038 46 ° 6 km/h 1933 m -17.6 m/s Mifrasit Base (IL) 403.001 MHz Dimona (IL) 0.00 km UNKNOWN
V1750611 RS41 2024-07-16 04:02:40 47.2925 15.8785 28 ° 4 km/h 590 m -10.1 m/s Graz (AT) 404.70 MHz Pöllau (AT) 0.00 km UNKNOWN
V5110640 RS41 2024-07-16 04:00:40 48.6373 14.7331 152 ° 35 km/h 1118 m -6.8 m/s Linz (AT) 403.40 MHz Weitra (AT) 0.00 km UNKNOWN
D24008527 DFM09 2024-07-16 03:36:56 42.8966 -85.4291 84 ° 39 km/h 4390 m -13.0 m/s 400.050 MHz Forest Hills [MI] (US) 0.00 km UNKNOWN
V3310782 RS41 2024-07-16 02:58:26 53.4421 -1.97764 53 ° 4 km/h 1557 m -3.2 m/s Watnall (GB) 404.201 MHz Glossop (GB) 0.00 km UNKNOWN
D23066971 DFM 2024-07-16 02:56:30 33.1233 -80.6895 5 ° 11 km/h 2329 m -1.9 m/s Charleston [SC] (US) 403.611 MHz Orangeburg [SC] (US) 0.00 km UNKNOWN
D23073763 DFM17 2024-07-16 02:55:09 30.2332 -93.769 71 ° 11 km/h 2451 m -1.9 m/s Lake Charles [LA] (US) 404.410 MHz Orange [TX] (US) 0.00 km UNKNOWN
V4140076 RS41 2024-07-16 02:47:52 37.6755 -5.81742 164 ° 33 km/h 559 m -1.7 m/s Huelva (ES) 402.501 MHz Cantillana (ES) 0.00 km UNKNOWN
V5010211 RS41 2024-07-16 02:43:27 49.9459 -4.20576 100 ° 44 km/h 109 m -3.0 m/s Camborne (GB) 405.70 MHz Plymstock (GB) 0.00 km LOST
V1020801 RS41 2024-07-16 02:40:47 50.2537 10.2209 35 ° 41 km/h 688 m -2.1 m/s Stuttgart (DE) 404.50 MHz Bad Kissingen (DE) 0.00 km UNKNOWN
V2840171 RS41 2024-07-16 02:37:46 39.9736 18.0489 175 ° 35 km/h 143 m -1.7 m/s Galatina (IT) 403.50 MHz Taviano (IT) 0.00 km UNKNOWN
D24000600 DFM09 2024-07-16 02:32:47 47.6829 -117.213 21 ° 9 km/h 636 m -2.6 m/s Spokane [WA] (US) 403.212 MHz Spokane Valley [WA] (US) 0.00 km UNKNOWN
D23073279 DFM17 2024-07-16 02:24:07 44.7173 -91.7998 164 ° 26 km/h 700 m -2.9 m/s Chanhassen [MN] (US) 403.610 MHz Menomonie [WI] (US) 0.00 km UNKNOWN
V3750659 RS41 2024-07-16 02:20:28 55.6459 10.7091 321 ° 39 km/h 201 m -2.3 m/s Schleswig (DE) 402.50 MHz Kerteminde (DK) 0.00 km LOST
V3130291 RS41 2024-07-16 02:11:14 55.0112 14.8032 57 ° 31 km/h 1537 m -1.9 m/s Greifswald (DE) 402.30 MHz Rønne (DK) 0.00 km LOST
V1210824 RS41 2024-07-16 02:11:03 79.6299 -87.8945 198 ° 6 km/h 1292 m -10.4 m/s Eureka [NU] (CA) 405.000 MHz 0.00 km UNKNOWN
V3520916 RS41-SGP 2024-07-16 02:08:56 -23.109 -41.1288 82 ° 24 km/h 3705 m -2.8 m/s Galeão (BR) 405.301 MHz Cabo Frio (BR) 0.00 km LOST
D23077497 DFM 2024-07-16 02:07:58 27.7461 -83.0203 11 ° 11 km/h 2439 m -7.2 m/s Tampa [FL] (US) 403.010 MHz Seminole [FL] (US) 0.00 km LOST
V2910864 RS41 2024-07-16 02:07:22 46.2891 9.26673 56 ° 20 km/h 2841 m -3.7 m/s Cameri (IT) 404.90 MHz Colico (IT) 0.00 km UNKNOWN
ME3422704 M10 2024-07-16 02:06:32 42.2097 9.32253 113 ° 35 km/h 3762 m -3.6 m/s Ajaccio (FR) 400.973 MHz Corte (FR) 0.00 km UNKNOWN
D23076355 DFM 2024-07-16 02:06:13 36.1694 -79.7336 48 ° 37 km/h 504 m -3.9 m/s Greensboro [NC] (US) 403.412 MHz Greensboro [NC] (US) 0.00 km UNKNOWN
IMS2F55F5 IMS100 2024-07-16 02:05:47 1.24263 103.748 356 ° 28 km/h 146 m -2.3 m/s Singapore (SG) 401.963 MHz 0.00 km LOST
V1730379 RS41 2024-07-16 02:05:09 39.0194 -7.73166 111 ° 20 km/h 250 m -2.7 m/s Lisbon (PT) 403.021 MHz Fronteira (PT) 0.00 km UNKNOWN
V3830832 RS41-SG 2024-07-16 02:04:48 -26.5887 148.634 82 ° 43 km/h 437 m -5.0 m/s Charleville (AU) 401.497 MHz Roma (AU) 0.00 km FOUND
V4110255 RS41 2024-07-16 02:03:41 40.7913 -2.42844 66 ° 35 km/h 3000 m -4.0 m/s Madrid (ES) 403.000 MHz Almazán (ES) 0.00 km UNKNOWN
V1610485 RS41 2024-07-16 02:03:40 61.2453 23.3237 26 ° 15 km/h 191 m -14.6 m/s Jokioinen (FI) 403.000 MHz Vesilahti (FI) 0.00 km UNKNOWN
U3330008 RS41-SG 2024-07-16 02:03:04 47.7055 7.35797 56 ° 20 km/h 431 m -6.6 m/s Payerne (CH) 403.501 MHz Brunstatt (FR) 0.00 km FOUND
V3631013 RS41 2024-07-16 02:02:35 -25.8909 -46.841 92 ° 59 km/h 5462 m -4.1 m/s 403.000 MHz 0.00 km LOST
D24004255 DFM09 2024-07-16 02:00:17 40.8192 -72.3683 71 ° 52 km/h 7302 m -3.0 m/s Upton [NY] (US) 405.410 MHz Hampton Bays [NY] (US) 0.00 km LOST
V5144153 RS41-SG 2024-07-16 01:59:00 28.5724 35.895 307 ° 48 km/h 16790 m -6.7 m/s Tabuk (SA) 401.001 MHz 0.00 km UNKNOWN
W0920364 RS41 2024-07-16 01:56:50 32.4373 -98.1269 236 ° 35 km/h 6201 m -2.8 m/s Fort Worth [TX] (US) 404.800 MHz Stephenville [TX] (US) 0.00 km UNKNOWN
ME34224CA M10 2024-07-16 01:56:39 49.5889 2.70098 62 ° 52 km/h 533 m -10.8 m/s Trappes (FR) 400.998 MHz Montdidier (FR) 0.00 km UNKNOWN
V0720502Z RS41 2024-07-16 01:56:32 48.6478 16.4365 333 ° 11 km/h 308 m -7.2 m/s Vienna (AT) 403.50 MHz Laa an der Thaya (AT) 0.00 km UNKNOWN
W1610496 RS41 2024-07-16 01:56:23 28.5083 -81.3118 301 ° 13 km/h 462 m -6.6 m/s Cape Canaveral [FL] (US) 401.001 MHz Conway [FL] (US) 0.00 km UNKNOWN
MEB100838 M20 2024-07-16 01:55:56 55.0735 18.0014 47 ° 41 km/h 3205 m -12.6 m/s Łeba (PL) 403.604 MHz Władysławowo (PL) 0.00 km LOST
MEA703815 M20 2024-07-16 01:55:47 48.5057 -3.55011 81 ° 31 km/h 382 m -13.3 m/s Guipavas (FR) 404.000 MHz Plouigneau (FR) 0.00 km FOUND
D23073252 DFM17 2024-07-16 01:53:24 41.0042 -115.802 80 ° 37 km/h 7813 m -6.6 m/s Elko [NV] (US) 403.212 MHz Elko [NV] (US) 0.00 km UNKNOWN
D23073182 DFM17 2024-07-16 01:49:20 30.5001 -82.4013 83 ° 11 km/h 7627 m -4.8 m/s Jacksonville [FL] (US) 403.211 MHz Macclenny [FL] (US) 0.00 km UNKNOWN
W1120986 RS41 2024-07-16 01:48:47 10.5873 106.057 106 ° 41 km/h 1726 m -17.6 m/s Ho Chi Minh (VN) 403.000 MHz 0.00 km UNKNOWN
D23077219 DFM 2024-07-16 01:48:43 37.2255 -80.3092 69 ° 44 km/h 817 m -11.4 m/s Blacksburg [VA] (US) 404.010 MHz Blacksburg [VA] (US) 0.00 km UNKNOWN
D23078071 DFM09 2024-07-16 01:47:26 45.0686 -97.2182 116 ° 69 km/h 5542 m -5.2 m/s Aberdeen [SD] (US) 405.211 MHz Watertown [SD] (US) 0.00 km UNKNOWN
W0950514 RS41 2024-07-16 01:46:36 55.3656 -2.30597 298 ° 17 km/h 2307 m -3.7 m/s Albemarle (GB) 405.100 MHz Kelso (GB) 0.00 km UNKNOWN
V4040022 RS41 2024-07-16 01:46:21 23.5028 57.5091 255 ° 48 km/h 6607 m -18.6 m/s Muscat (OM) 403.000 MHz 0.00 km UNKNOWN
D23075736 DFM09 2024-07-16 01:46:16 46.2832 -99.5072 140 ° 57 km/h 2932 m -5.5 m/s Bismarck [ND] (US) 403.811 MHz Jamestown [ND] (US) 0.00 km UNKNOWN
V3934175 RS41-SGP 2024-07-16 01:44:49 -23.7488 -45.2149 174 ° 9 km/h 1854 m -8.1 m/s São Paulo (BR) 405.301 MHz Caraguatatuba (BR) 0.00 km LOST
D24005377 DFM17 2024-07-16 01:44:05 40.0466 -89.1845 32 ° 52 km/h 686 m -9.8 m/s Lincoln [IL] (US) 404.410 MHz Lincoln [IL] (US) 0.00 km UNKNOWN
V3230383 RS41 2024-07-16 01:42:08 67.5312 25.6523 313 ° 28 km/h 7500 m -13.3 m/s Sodankyla (FI) 404.000 MHz Kittilä (FI) 0.00 km UNKNOWN
V3830805 RS41-SG 2024-07-16 01:41:40 -37.3788 145.056 22 ° 30 km/h 504 m -6.7 m/s Melbourne (AU) 400.501 MHz Wallan (AU) 0.00 km UNKNOWN
V2910225 RS41 2024-07-16 01:41:32 41.7687 12.4978 119 ° 11 km/h 168 m -4.6 m/s Pratica di Mare (IT) 405.800 MHz Ciampino (IT) 0.00 km FOUND
V4510968 RS41 2024-07-16 01:41:14 52.6447 21.6335 356 ° 20 km/h 791 m -6.7 m/s Legionowo (PL) 404.499 MHz Łochów (PL) 0.00 km UNKNOWN
D23075735 DFM09 2024-07-16 01:40:19 31.5678 -107.395 276 ° 20 km/h 2245 m -3.8 m/s Santa Teresa [NM] (US) 401.410 MHz Sunland Park [NM] (US) 0.00 km UNKNOWN
W1340610 RS41 2024-07-16 01:39:28 52.9939 5.15289 285 ° 31 km/h 213 m -11.4 m/s De Bilt (NL) 403.90 MHz Wieringerwerf (NL) 0.00 km LOST
MEA800879 M20 2024-07-16 01:39:00 44.3141 5.49192 76 ° 78 km/h 6873 m -4.2 m/s Nîmes (FR) 405.001 MHz Nyons (FR) 0.00 km UNKNOWN
W0140362 RS41-NG 2024-07-16 01:38:29 38.8959 -95.6385 10 ° 26 km/h 340 m -8.2 m/s Topeka [KS] (US) 404.000 MHz Topeka [KS] (US) 0.00 km UNKNOWN
MEB101877 M20 2024-07-16 01:37:58 51.4983 17.0951 329 ° 37 km/h 889 m -11.1 m/s Wrocław (PL) 403.000 MHz Milicz (PL) 0.00 km UNKNOWN
V3814349 RS41 2024-07-16 01:37:48 43.7075 -2.79817 71 ° 57 km/h 3651 m -10.1 m/s Santander (ES) 402.500 MHz Bermeo (ES) 0.00 km LOST
D23073113 DFM17 2024-07-16 01:35:27 34.7291 -77.1509 67 ° 43 km/h 9977 m -5.9 m/s Newport [NC] (US) 400.811 MHz Swansboro [NC] (US) 0.00 km UNKNOWN
T5050329 RS41 2024-07-16 01:35:23 49.7891 17.2279 350 ° 20 km/h 1460 m -8.4 m/s Prostějov (CZ) 402.100 MHz Uničov (CZ) 0.00 km FOUND
W1430083 RS41 2024-07-16 01:34:06 44.9796 12.1247 171 ° 6 km/h 69 m -12.1 m/s San Pietro Capofiume (IT) 404.60 MHz Taglio di Po (IT) 0.00 km UNKNOWN
V3050409 RS41 2024-07-16 01:33:48 59.3182 6.00114 327 ° 7 km/h 179 m -10.6 m/s Stavanger (NO) 403.000 MHz Judaberg (NO) 0.00 km LOST
W1020783 RS41 2024-07-16 01:33:37 39.0212 -77.23 85 ° 50 km/h 6409 m -12.6 m/s Washington [VA] (US) 403.000 MHz Potomac [MD] (US) 0.00 km FOUND
W1731839 RS41-SG 2024-07-16 01:32:53 42.5873 -83.0616 121 ° 44 km/h 4302 m -15.5 m/s Waterford [MI] (US) 403.379 MHz Sterling Heights [MI] (US) 0.00 km UNKNOWN
W0324719 RS41-SGP 2024-07-16 01:31:57 49.22 20.2409 27 ° 43 km/h 3016 m -15.9 m/s Poprad (SK) 400.602 MHz Lendak (SK) 0.00 km UNKNOWN
ME35222A0 M10 2024-07-16 01:31:50 38.2142 -0.589341 174 ° 24 km/h 1001 m -10.0 m/s Murcia (ES) 403.400 MHz Santa Pola (ES) 0.00 km UNKNOWN
V2450364 RS41 2024-07-16 01:30:48 -37.304 144.898 15 ° 46 km/h 383 m -8.7 m/s Melbourne (AU) 401.500 MHz Kilmore (AU) 0.00 km UNKNOWN
D24000064 DFM09 2024-07-16 01:30:47 42.7561 -73.4967 61 ° 46 km/h 4918 m -10.6 m/s Albany [NY] (US) 401.010 MHz Troy [NY] (US) 0.00 km UNKNOWN
U3260732 RS41 2024-07-16 01:29:31 50.0822 12.1207 91 ° 39 km/h 859 m -11.9 m/s Kümmersbruck (DE) 402.700 MHz Aš (CZ) 0.00 km FOUND
V3451602 RS41 2024-07-16 01:29:11 54.6482 -6.66404 212 ° 13 km/h 22137 m -12.8 m/s Castor Bay (IE) 403.90 MHz Cookstown (GB) 0.00 km UNKNOWN
V2920411 RS41 2024-07-16 01:27:20 37.6292 12.4044 180 ° 26 km/h 69 m -5.3 m/s Trapani-Birgi (IT) 404.500 MHz Petrosino (IT) 0.00 km LOST
MEB101886 M20 2024-07-16 01:27:13 50.2279 21.0538 322 ° 31 km/h 556 m -11.7 m/s Tarnów (PL) 405.800 MHz Dąbrowa Tarnowska (PL) 0.00 km UNKNOWN
ME9B00702 M20 2024-07-16 01:26:21 45.1247 0.658081 45 ° 9 km/h 264 m -11.3 m/s Bordeaux (FR) 402.803 MHz Coulounieix (FR) 0.00 km UNKNOWN
D23077275 DFM 2024-07-16 01:25:43 36.299 -86.8947 263 ° 57 km/h 23266 m -14.1 m/s Nashville [TN] (US) MHz Nashville [TN] (US) 0.00 km UNKNOWN
D23074325 DFM 2024-07-16 01:25:12 33.4513 -85.1177 170 ° 13 km/h 15540 m -14.8 m/s Peachtree City [GA] (US) MHz Carrollton [GA] (US) 0.00 km UNKNOWN
D23072665 DFM17 2024-07-16 01:24:51 41.1067 -96.0168 225 ° 19 km/h 458 m -9.6 m/s Valley [NE] (US) 403.210 MHz Papillion [NE] (US) 0.00 km UNKNOWN
MEB003287 M20 2024-07-16 01:23:00 37.5521 23.4539 279 ° 59 km/h 22345 m -18.0 m/s Athens (GR) 405.201 MHz Póros (GR) 0.00 km LOST
MTS9BAB20 MTS01 2024-07-16 01:23:00 38.4574 26.6297 271 ° 98 km/h 32864 m -9999.0 m/s Izmir (TR) 401.497 MHz Mordoğan (TR) 0.00 km LOST